Temp     Hi    Low   Out    Dew  Wind  Wind   Wind    Hi    Hi   Wind   Heat    THW   THSW                Rain  Solar   Solar Hi Solar   UV    UV    Hi     Heat    Cool    In     In    In     In           Wind  Wind    ISS   Arc.
  Date    Time     Out   Temp   Temp   Hum    Pt. Speed   Dir    Run Speed   Dir  Chill  Index  Index  Index   Bar    Rain  Rate   Rad.  Energy    Rad.  Index  Dose   UV     D-D     D-D    Temp   Hum    Dew   Heat     ET   Samp   Tx   Recept  Int.
---------------------------------------------------------------------------------------------------------------------------------------------------------------------------------------------------------------------------------------------------------
11/04/19   0.15   10.2   10.6   10.2    89    8.5   0.0   ---   0.00   0.0   ---   10.2   10.3   10.3    8.7   592.6  0.00   0.0     0     0.00      0     0.0  0.00   0.0   0.084   0.000   15.6    69    9.9   15.2    0.00   346    1    100.0   15 
11/04/19   0.30   10.1   10.2   10.1    90    8.5   0.0   ---   0.00   0.0   ---   10.1   10.2   10.2    8.6   592.6  0.00   0.0     0     0.00      0     0.0  0.00   0.0   0.086   0.000   15.6    69    9.9   15.2    0.00   351    1    100.0   15 
11/04/19   0.45    9.6   10.1    9.6    89    7.8   0.0   ---   0.00   0.0   ---    9.6    9.7    9.7    8.1   592.6  0.00   0.0     0     0.00      0     0.0  0.00   0.0   0.091   0.000   15.6    69    9.9   15.2    0.00   350    1    100.0   15 
11/04/19   1.00    9.1    9.6    9.0    90    7.5   0.0   ---   0.00   0.0   ---    9.1    9.2    9.2    7.5   592.6  0.00   0.0     0     0.00      0     0.0  0.00   0.0   0.097   0.000   15.6    68    9.7   15.2    0.00   350    1    100.0   15 
11/04/19   1.15    9.1    9.2    9.1    90    7.6   0.0   ---   0.00   0.0   ---    9.1    9.2    9.2    7.6   592.6  0.00   0.0     0     0.00      0     0.0  0.00   0.0   0.096   0.000   15.6    68    9.7   15.2    0.00   350    1    100.0   15 
11/04/19   1.30    9.3    9.4    9.1    90    7.8   0.0   ---   0.00   0.0   ---    9.3    9.5    9.5    7.8   592.6  0.00   0.0     0     0.00      0     0.0  0.00   0.0   0.094   0.000   15.6    68    9.7   15.2    0.00   348    1    100.0   15 
11/04/19   1.45    9.1    9.3    9.1    91    7.7   0.0   ---   0.00   0.0   ---    9.1    9.2    9.2    7.6   592.6  0.00   0.0     0     0.00      0     0.0  0.00   0.0   0.097   0.000   15.4    67    9.3   15.0    0.00   350    1    100.0   15 
11/04/19   2.00    8.8    9.1    8.8    91    7.4   0.0   ---   0.00   0.0   ---    8.8    8.9    8.9    7.3   592.6  0.00   0.0     0     0.00      0     0.0  0.00   0.0   0.099   0.000   15.4    67    9.3   15.0    0.00   349    1    100.0   15 
11/04/19   2.15    8.7    8.8    8.7    91    7.3   0.0   ---   0.00   0.0   ---    8.7    8.8    8.8    7.1   592.6  0.00   0.0     0     0.00      0     0.0  0.00   0.0   0.101   0.000   15.4    67    9.3   15.0    0.00   350    1    100.0   15 
11/04/19   2.30    8.9    8.9    8.7    91    7.6   0.0   ---   0.00   0.0   ---    8.9    9.1    9.1    7.4   592.6  0.00   0.0     0     0.00      0     0.0  0.00   0.0   0.098   0.000   15.4    67    9.3   14.9    0.00   350    1    100.0   15 
11/04/19   2.45    8.7    9.1    8.7    91    7.3   0.0   ---   0.00   0.0   ---    8.7    8.8    8.8    7.2   592.6  0.00   0.0     0     0.00      0     0.0  0.00   0.0   0.100   0.000   15.4    67    9.3   14.9    0.00   349    1    100.0   15 
11/04/19   3.00    8.7    8.7    8.6    91    7.3   0.0   ---   0.00   0.0   ---    8.7    8.8    8.8    7.1   592.6  0.00   0.0     0     0.00      0     0.0  0.00   0.0   0.101   0.000   15.4    66    9.1   14.9    0.00   351    1    100.0   15 
11/04/19   3.15    8.8    9.2    8.7    91    7.4   0.0   ---   0.00   0.0   ---    8.8    8.9    8.9    7.3   592.6  0.00   0.0     0     0.00      0     0.0  0.00   0.0   0.099   0.000   15.3    66    9.0   14.8    0.00   351    1    100.0   15 
11/04/19   3.30    8.5    8.8    8.5    91    7.1   0.0   ---   0.00   0.0   ---    8.5    8.6    8.6    6.9   592.6  0.00   0.0     0     0.00      0     0.0  0.00   0.0   0.102   0.000   15.3    66    9.0   14.8    0.00   350    1    100.0   15 
11/04/19   3.45    8.7    8.8    8.5    92    7.4   0.0   ---   0.00   0.0   ---    8.7    8.8    8.8    7.2   592.6  0.00   0.0     0     0.00      0     0.0  0.00   0.0   0.101   0.000   15.3    66    9.0   14.8    0.00   349    1    100.0   15 
11/04/19   4.00    8.9    9.2    8.6    92    7.7   0.0   ---   0.00   0.0   ---    8.9    9.1    9.1    7.4   592.6  0.00   0.0     0     0.00      0     0.0  0.00   0.0   0.098   0.000   15.3    66    9.0   14.8    0.00   351    1    100.0   15 
11/04/19   4.15    8.7    9.2    8.7    92    7.5   0.0   ---   0.00   0.0   ---    8.7    8.9    8.9    7.2   592.6  0.00   0.0     0     0.00      0     0.0  0.00   0.0   0.100   0.000   15.3    66    9.0   14.8    0.00   350    1    100.0   15 
11/04/19   4.30    8.9    9.1    8.7    92    7.7   0.0   ---   0.00   0.0   ---    8.9    9.1    9.1    7.4   592.6  0.00   0.0     0     0.00      0     0.0  0.00   0.0   0.098   0.000   15.2    66    8.9   14.7    0.00   348    1    100.0   15 
11/04/19   4.45    9.2    9.3    8.9    92    7.9   0.0   ---   0.00   0.0   ---    9.2    9.3    9.3    7.7   592.6  0.00   0.0     0     0.00      0     0.0  0.00   0.0   0.095   0.000   15.2    67    9.1   14.8    0.00   346    1    100.0   15 
11/04/19   5.00    9.2    9.3    9.2    92    7.9   0.0   SSE   0.00   1.6   SSE    9.2    9.3    9.3    7.7   592.6  0.00   0.0     0     0.00      0     0.0  0.00   0.0   0.095   0.000   15.2    67    9.1   14.8    0.00   348    1    100.0   15 
11/04/19   5.15    9.9    9.9    9.1    92    8.6   0.0   ---   0.00   0.0   ---    9.9   10.1   10.1    8.5   592.6  0.00   0.0     0     0.00      0     0.0  0.00   0.0   0.088   0.000   15.2    67    9.1   14.8    0.00   349    1    100.0   15 
11/04/19   5.30   10.1   10.1    9.3    92    8.8   0.0   ---   0.00   0.0   ---   10.1   10.3   10.3    8.7   592.6  0.00   0.0     0     0.00      0     0.0  0.00   0.0   0.086   0.000   15.2    67    9.1   14.8    0.00   348    1    100.0   15 
11/04/19   5.45   10.3   10.4   10.1    92    9.1   0.0   ---   0.00   0.0   ---   10.3   10.5   10.5    8.9   592.6  0.00   0.0     0     0.00      0     0.0  0.00   0.0   0.083   0.000   15.2    67    9.1   14.8    0.00   350    1    100.0   15 
11/04/19   6.00   10.8   10.9   10.3    92    9.6   0.0   ---   0.00   0.0   ---   10.8   11.0   11.0    9.4   592.6  0.00   0.0     0     0.00      0     0.0  0.00   0.0   0.078   0.000   15.2    67    9.1   14.8    0.00   350    1    100.0   15 
11/04/19   6.15   11.2   11.3   10.7    92    9.9   0.0   SSE   0.00   1.6   SSE   11.2   11.3   11.3    9.7   592.6  0.00   0.0     0     0.00      0     0.0  0.00   0.0   0.075   0.000   15.2    68    9.4   14.8    0.00   351    1    100.0   15 
11/04/19   6.30   10.2   11.2   10.2    92    9.0   0.0   SSE   0.00   1.6   SSE   10.2   10.4   10.4    8.8   592.6  0.00   0.0     0     0.00      0     0.0  0.00   0.0   0.084   0.000   15.2    68    9.4   14.8    0.00   350    1    100.0   15 
11/04/19   6.45   10.7   10.8   10.3    92    9.4   0.0   SSE   0.00   3.2   SSE   10.7   10.8   10.8    9.3   592.6  0.00   0.0     0     0.00      0     0.0  0.00   0.0   0.080   0.000   15.2    68    9.4   14.8    0.00   348    1    100.0   15 
11/04/19   7.00   10.6   10.8   10.6    92    9.4   0.0   ---   0.00   0.0   ---   10.6   10.8   10.8    9.3   592.6  0.00   0.0     4     0.09      9     0.0  0.00   0.0   0.080   0.000   15.2    68    9.4   14.8    0.00   346    1    100.0   15 
11/04/19   7.15   11.0   11.0   10.6    92    9.7   0.0   ---   0.00   0.0   ---   11.0   11.1   11.1    9.8   592.6  0.00   0.0    17     0.37     25     0.0  0.00   0.0   0.076   0.000   15.2    68    9.4   14.8    0.00   350    1    100.0   15 
11/04/19   7.30   12.2   12.2   11.0    92   10.9   0.0   SSE   0.00   4.8   SSE   12.2   12.2   12.2   11.2   592.6  0.00   0.0    34     0.73     42     0.0  0.00   0.0   0.064   0.000   15.2    69    9.6   14.8    0.00   350    1    100.0   15 
11/04/19   7.45   12.0   12.3   11.8    92   10.7   0.0   SSE   0.00   3.2   SSE   12.0   12.1   12.1   11.0   592.6  0.00   0.0    32     0.69     42     0.0  0.00   0.0   0.066   0.000   15.2    69    9.6   14.8    0.00   343    1    100.0   15 
11/04/19   8.00   12.8   12.8   12.0    92   11.6   3.2   ESE   0.80   9.7    SE   12.8   12.9   12.9   11.9   583.5  0.00   0.0    36     0.77     51     0.0  0.00   0.0   0.057   0.000   15.3    69    9.6   14.9    0.03   337    1     98.5   15 
11/04/19   8.15   13.1   13.1   12.8    92   11.8   3.2   ESE   0.80   9.7   ESE   13.1   13.1   13.1   13.8   583.5  0.00   0.0    68     1.46     84     0.0  0.00   0.0   0.055   0.000   15.3    70    9.8   14.9    0.00   334    1     97.7   15 
11/04/19   8.30   13.2   13.2   13.0    91   11.7   3.2    SE   0.80  11.3    SE   13.2   13.2   13.2   14.6   583.5  0.00   0.0    98     2.11    113     0.0  0.00   0.0   0.054   0.000   15.3    70    9.8   14.9    0.00   325    1     95.0   15 
11/04/19   8.45   13.4   13.4   13.2    91   12.0   0.0    SE   0.00   6.4    SE   13.4   13.5   13.5   15.8   583.5  0.00   0.0   148     3.18    199     0.0  0.00   0.0   0.051   0.000   15.4    70    9.9   15.1    0.00   326    1     95.3   15 
11/04/19   9.00   13.7   13.7   13.4    89   11.9   4.8    SE   1.21  11.3   ESE   13.7   13.7   13.7   17.6   583.5  0.00   0.0   240     5.16    264     0.0  0.00   0.0   0.049   0.000   15.4    70    9.9   15.1    0.00   309    1     90.4   15 
11/04/19   9.15   13.8   13.8   13.7    87   11.7   8.0    SE   2.01  17.7    SE   13.5   13.8   13.5   17.8   583.5  0.00   0.0   282     6.06    302     0.0  0.00   0.0   0.047   0.000   15.4    70   10.0   15.1    0.08   302    1     88.3   15 
11/04/19   9.30   13.8   13.9   13.8    87   11.7   8.0   ESE   2.01  17.7    SE   13.4   13.8   13.4   17.7   583.5  0.00   0.0   286     6.15    302     0.0  0.00   0.0   0.047   0.000   15.6    70   10.1   15.2    0.00   302    1     88.3   15 
11/04/19   9.45   13.7   13.9   13.7    86   11.4   8.0    SE   2.01  19.3    SE   13.4   13.7   13.3   17.4   583.5  0.00   0.0   280     6.02    295     0.0  0.00   0.0   0.048   0.000   15.6    70   10.2   15.3    0.00   296    1     86.5   15 
11/04/19  10.00   13.8   13.8   13.7    85   11.4   8.0    SE   2.01  16.1    SE   13.5   13.8   13.4   17.2   583.5  0.00   0.0   272     5.85    306     0.0  0.00   0.0   0.047   0.000   15.6    70   10.2   15.3    0.15   300    1     87.7   15 
11/04/19  10.15   13.9   13.9   13.8    85   11.5   6.4    SE   1.61  17.7    SE   13.9   13.9   13.9   18.3   583.5  0.00   0.0   329     7.07    466     0.0  0.00   0.0   0.046   0.000   15.6    71   10.4   15.3    0.00   323    1     94.4   15 
11/04/19  10.30   14.1   14.3   14.0    84   11.4   4.8    SE   1.21  16.1    SE   14.1   14.1   14.1   18.9   583.5  0.00   0.0   379     8.15    585     0.0  0.00   0.0   0.044   0.000   15.7    70   10.3   15.4    0.00   276    1     80.7   15 
11/04/19  10.45   14.6   14.6   14.1    84   11.9   4.8    SE   1.21  16.1   SSE   14.6   14.5   14.5   20.2   583.5  0.00   0.0   544    11.70    733     0.0  0.00   0.0   0.039   0.000   15.8    70   10.3   15.4    0.00   286    1     83.6   15 
11/04/19  11.00   15.1   15.1   14.6    82   12.0   6.4    SE   1.61  16.1    SE   15.1   15.0   15.0   22.1   583.5  0.00   0.0   703    15.12    789     0.0  0.00   0.0   0.034   0.000   15.9    70   10.4   15.6    0.28   272    1     79.5   15 
11/04/19  11.15   14.2   15.2   14.2    82   11.2   4.8    SE   1.21  17.7   SSE   14.2   14.1   14.1   18.9   583.5  0.00   0.0   415     8.92    717     0.0  0.00   0.0   0.043   0.000   16.0    70   10.5   15.7    0.00   306    1     89.5   15 
11/04/19  11.30   14.1   14.2   14.1    82   11.0   4.8   SSE   1.21  11.3   SSE   14.1   13.9   13.9   17.2   583.5  0.00   0.0   287     6.17    308     0.0  0.00   0.0   0.045   0.000   16.0    70   10.5   15.7    0.00   315    1     92.1   15 
11/04/19  11.45   14.3   14.3   14.1    81   11.1   4.8   SSE   1.21  11.3    SE   14.3   14.2   14.2   17.8   583.5  0.00   0.0   329     7.07    367     0.0  0.00   0.0   0.042   0.000   16.0    70   10.5   15.7    0.00   273    1     79.8   15 
11/04/19  12.00   14.6   14.6   14.2    81   11.3   4.8   SSE   1.21  14.5    SE   14.6   14.4   14.4   19.5   583.5  0.00   0.0   467    10.04    663     0.0  0.00   0.0   0.039   0.000   16.1    69   10.4   15.7    0.20   285    1     83.3   15 
11/04/19  12.15   14.7   15.3   14.6    79   11.1   4.8   SSE   1.21  16.1   SSE   14.7   14.6   14.6   20.7   583.5  0.00   0.0   740    15.91    837     0.2  0.02   0.7   0.038   0.000   16.2    69   10.5   15.8    0.00   303    1     88.6   15 
11/04/19  12.30   14.7   15.0   14.6    79   11.1   4.8   SSE   1.21  14.5    SE   14.7   14.6   14.6   19.3   583.5  0.00   0.0   442     9.50    867     0.1  0.01   0.9   0.038   0.000   16.2    69   10.5   15.9    0.00   283    1     82.7   15 
11/04/19  12.45   14.8   15.0   14.7    77   10.8   4.8   SSW   1.21  16.1   SSW   14.8   14.6   14.6   19.4   583.5  0.00   0.0   457     9.83    503     0.0  0.00   0.0   0.036   0.000   16.3    69   10.6   16.0    0.00   292    1     85.4   15 
11/04/19  13.00   15.1   15.1   14.6    77   11.1   4.8     S   1.21  14.5   SSW   15.1   14.8   14.8   19.8   583.5  0.00   0.0   477    10.26    527     0.0  0.00   0.0   0.034   0.000   16.3    69   10.6   16.0    0.30   304    1     88.9   15 
11/04/19  13.15   15.2   15.3   15.1    76   11.0   3.2   SSW   0.80  16.1   WSW   15.2   14.9   14.9   20.2   583.5  0.00   0.0   505    10.86    633     0.2  0.02   1.5   0.033   0.000   16.4    69   10.7   16.1    0.00   305    1     89.2   15 
11/04/19  13.30   15.6   15.6   15.0    75   11.1   3.2   SSW   0.80  14.5   SSW   15.6   15.3   15.3   20.5   583.5  0.00   0.0   496    10.67    990     0.3  0.03   1.6   0.029   0.000   16.4    69   10.7   16.1    0.00   300    1     87.7   15 
11/04/19  13.45   15.6   16.2   15.4    73   10.7   3.2   SSW   0.80  11.3   SSW   15.6   15.3   15.3   21.2   583.5  0.00   0.0   683    14.69   1048     0.5  0.05   1.9   0.029   0.000   16.6    68   10.7   16.3    0.00   295    1     86.3   15 
11/04/19  14.00   15.1   15.6   14.9    71    9.9   4.8     S   1.21  17.7     S   15.1   14.8   14.8   18.6   583.5  0.00   0.0   356     7.65    645     0.0  0.00   0.0   0.034   0.000   16.6    68   10.7   16.3    0.33   317    1     92.7   15 
11/04/19  14.15   15.4   15.6   15.2    66    9.1   3.2     S   0.80  11.3     S   15.4   14.9   14.9   20.6   583.5  0.00   0.0   571    12.28    770     0.0  0.00   0.0   0.030   0.000   16.6    68   10.7   16.3    0.00   315    1     92.1   15 
11/04/19  14.30   16.6   16.6   15.3    65    9.9   1.6     S   0.40   9.7     S   16.6   16.2   16.2   24.8   583.5  0.00   0.0   951    20.45   1109     0.7  0.07   1.1   0.019   0.000   16.7    68   10.7   16.3    0.00   310    1     90.6   15 
11/04/19  14.45   16.4   17.2   16.4    62    9.1   1.6     S   0.40  11.3     S   16.4   15.8   15.8   22.3   583.5  0.00   0.0   729    15.68   1146     0.1  0.01   0.9   0.020   0.000   16.8    68   10.9   16.6    0.00   298    1     87.1   15 
11/04/19  15.00   16.1   16.3   15.9    64    9.2   0.0     S   0.00   9.7     S   16.1   15.6   15.6   20.1   583.5  0.00   0.0   403     8.67    529     0.0  0.00   0.0   0.024   0.000   16.8    67   10.7   16.5    0.36   312    1     91.2   15 
11/04/19  15.15   16.1   16.4   15.8    65    9.5   1.6   SSW   0.40  14.5     S   16.1   15.7   15.7   21.4   583.5  0.00   0.0   544    11.70    826     0.0  0.00   0.0   0.023   0.000   16.8    67   10.7   16.5    0.00   306    1     89.5   15 
11/04/19  15.30   16.7   17.1   16.2    62    9.3   4.8     S   1.21  14.5     S   16.7   16.1   16.1   25.1   583.5  0.00   0.0   840    18.06    856     0.0  0.00   0.0   0.017   0.000   17.0    67   10.8   16.7    0.00   292    1     85.4   15 
11/04/19  15.45   16.2   16.8   16.2    62    8.9   4.8     S   1.21  11.3     S   16.2   15.6   15.6   24.1   583.5  0.00   0.0   766    16.47    902     0.0  0.00   0.0   0.023   0.000   17.2    67   11.0   16.9    0.00   302    1     88.3   15 
11/04/19  16.00   16.8   17.1   16.2    62    9.5   1.6     S   0.40  11.3   SSW   16.8   16.3   16.3   25.1   583.5  0.00   0.0   745    16.02    863     0.0  0.00   0.0   0.016   0.000   17.3    66   10.9   17.0    0.41   317    1     92.7   15 
11/04/19  16.15   16.5   16.8   16.2    65    9.9   3.2     S   0.80  12.9   SSW   16.5   16.1   16.1   25.3   854.3  0.00   0.0   726    15.61    828     0.0  0.00   0.0   0.019   0.000   17.4    66   11.0   17.2    0.00   308    1     90.1   15 
11/04/19  16.30   15.3   16.5   15.3    69    9.7   1.6     S   0.40  11.3     S   15.3   14.9   14.9   18.9   854.3  0.00   0.0   283     6.09    311     0.0  0.00   0.0   0.031   0.000   17.4    66   11.0   17.2    0.00   324    1     94.7   15 
11/04/19  16.45   15.2   15.3   15.1    69    9.5   0.0     S   0.00   8.0     S   15.2   14.8   14.8   18.2   800.1  0.00   0.0   237     5.10    290     0.0  0.00   0.0   0.033   0.000   17.3    66   10.9   17.0    0.00   336    1     98.2   15 
11/04/19  17.00   15.2   15.3   15.0    72   10.2   3.2     S   0.80  11.3     S   15.2   14.8   14.8   17.7   800.1  0.00   0.0   190     4.09    309     0.0  0.00   0.0   0.033   0.000   17.2    66   10.8   16.9    0.20   294    1     86.0   15 
11/04/19  17.15   14.7   15.3   14.7    74   10.1   6.4    NW   1.61  16.1   NNW   14.7   14.4   14.4   18.4   800.1  0.00   0.0   254     5.46    357     0.0  0.00   0.0   0.038   0.000   17.1    66   10.7   16.8    0.00   286    1     83.6   15 
11/04/19  17.30   14.7   14.9   14.6    76   10.5   6.4   NNW   1.61  17.7   NNW   14.7   14.5   14.5   17.9   800.1  0.00   0.0   215     4.62    262     0.0  0.00   0.0   0.038   0.000   17.1    66   10.7   16.8    0.00   274    1     80.1   15 
11/04/19  17.45   14.9   15.0   14.5    75   10.5   6.4   NNW   1.61  19.3     N   14.9   14.6   14.6   20.2   800.1  0.00   0.0   321     6.90    364     0.0  0.00   0.0   0.036   0.000   17.0    66   10.6   16.7    0.00   277    1     81.0   15 
11/04/19  18.00   14.6   14.9   14.6    75   10.2   8.0     N   2.01  16.1     N   14.4   14.3   14.2   20.1   800.1  0.00   0.0   312     6.71    366     0.0  0.00   0.0   0.039   0.000   17.0    66   10.6   16.7    0.18   273    1     79.8   15 
11/04/19  18.15   14.3   14.8   14.3    77   10.4   8.0   NNE   2.01  19.3   NNE   14.1   14.1   13.9   18.2   800.1  0.00   0.0   232     4.99    295     0.0  0.00   0.0   0.042   0.000   16.9    66   10.5   16.6    0.00   277    1     81.0   15 
11/04/19  18.30   14.3   14.4   14.2    78   10.5   6.4   NNE   1.61  19.3   NNE   14.3   14.2   14.2   14.5   800.1  0.00   0.0   171     3.68    229     0.0  0.00   0.0   0.042   0.000   16.8    66   10.4   16.5    0.00   280    1     81.9   15 
11/04/19  18.45   14.1   14.3   14.1    78   10.3   4.8   NNE   1.21  19.3   NNE   14.1   13.8   13.8   13.3   800.1  0.00   0.0    94     2.02    113     0.0  0.00   0.0   0.045   0.000   16.8    66   10.4   16.4    0.00   300    1     87.7   15 
11/04/19  19.00   13.9   14.1   13.9    79   10.3   6.4     N   1.61  14.5     N   13.9   13.7   13.7   12.8   800.1  0.00   0.0    68     1.46     83     0.0  0.00   0.0   0.046   0.000   16.7    66   10.3   16.3    0.10   309    1     90.4   15 
11/04/19  19.15   13.8   13.9   13.8    80   10.4   3.2     N   0.80  12.9     N   13.8   13.6   13.6   12.4   800.1  0.00   0.0    39     0.84     51     0.0  0.00   0.0   0.047   0.000   16.7    66   10.3   16.3    0.00   329    1     96.2   15 
11/04/19  19.30   13.6   13.8   13.6    81   10.4   0.0     N   0.00   8.0     N   13.6   13.4   13.4   12.0   800.1  0.00   0.0    19     0.41     26     0.0  0.00   0.0   0.049   0.000   16.6    67   10.5   16.3    0.00   269    1     78.7   15 
11/04/19  19.45   13.4   13.6   13.4    81   10.2   3.2     N   0.80   9.7     N   13.4   13.3   13.3   11.7   800.1  0.00   0.0     9     0.19     12     0.0  0.00   0.0   0.051   0.000   16.5    67   10.3   16.2    0.00   244    1     71.3   15 
11/04/19  20.00   13.3   13.4   13.3    81   10.1   1.6     N   0.40   8.0     N   13.3   13.1   13.1   11.4   800.1  0.00   0.0     0     0.00      0     0.0  0.00   0.0   0.053   0.000   16.4    67   10.2   16.0    0.03   240    1     70.2   15 
11/04/19  20.15   13.2   13.3   13.2    82   10.2   0.0     N   0.00   1.6     N   13.2   13.1   13.1   11.3   800.1  0.00   0.0     0     0.00      0     0.0  0.00   0.0   0.054   0.000   16.4    67   10.2   16.0    0.00   248    1     72.5   15 
11/04/19  20.30   13.1   13.2   13.1    82   10.1   0.0   ---   0.00   0.0   ---   13.1   12.9   12.9   11.2   800.1  0.00   0.0     0     0.00      0     0.0  0.00   0.0   0.055   0.000   16.3    67   10.2   15.9    0.00   244    1     71.3   15 
11/04/19  20.45   13.0   13.1   12.9    82   10.0   0.0   ---   0.00   0.0   ---   13.0   12.9   12.9   11.2   800.1  0.00   0.0     0     0.00      0     0.0  0.00   0.0   0.056   0.000   16.2    67   10.1   15.8    0.00   260    1     76.0   15 
11/04/19  21.00   13.1   13.1   13.0    83   10.2   0.0     N   0.00   1.6     N   13.1   12.9   12.9   11.2   800.1  0.00   0.0     0     0.00      0     0.0  0.00   0.0   0.055   0.000   16.2    67   10.1   15.8    0.00   271    1     79.2   15 
11/04/19  21.15   13.1   13.2   13.1    84   10.5   0.0   ---   0.00   0.0   ---   13.1   13.1   13.1   11.3   800.1  0.00   0.0     0     0.00      0     0.0  0.00   0.0   0.054   0.000   16.2    68   10.3   15.8    0.00   316    1     92.4   15 
11/04/19  21.30   13.1   13.2   13.1    85   10.6   0.0   ---   0.00   0.0   ---   13.1   13.0   13.0   11.3   800.1  0.00   0.0     0     0.00      0     0.0  0.00   0.0   0.055   0.000   16.2    68   10.3   15.8    0.00   339    1     99.1   15 
11/04/19  21.45   12.8   13.1   12.8    85   10.3   0.0   ---   0.00   0.0   ---   12.8   12.7   12.7   11.0   800.1  0.00   0.0     0     0.00      0     0.0  0.00   0.0   0.058   0.000   16.2    68   10.3   15.8    0.00   331    1     96.8   15 
11/04/19  22.00   12.7   12.8   12.7    86   10.4   0.0   ---   0.00   0.0   ---   12.7   12.7   12.7   10.9   800.1  0.00   0.0     0     0.00      0     0.0  0.00   0.0   0.058   0.000   16.2    68   10.3   15.8    0.00   311    1     90.9   15 
11/04/19  22.15   12.7   12.7   12.7    86   10.4   0.0   ---   0.00   0.0   ---   12.7   12.7   12.7   10.9   800.1  0.00   0.0     0     0.00      0     0.0  0.00   0.0   0.058   0.000   16.2    69   10.5   15.8    0.00   332    1     97.1   15 
11/04/19  22.30   12.7   12.8   12.7    87   10.6   0.0   ---   0.00   0.0   ---   12.7   12.7   12.7   11.1   800.1  0.00   0.0     0     0.00      0     0.0  0.00   0.0   0.058   0.000   16.1    69   10.4   15.7    0.00   333    1     97.4   15 
11/04/19  22.45   12.7   12.7   12.7    87   10.6   0.0   ---   0.00   0.0   ---   12.7   12.7   12.7   11.0   800.1  0.00   0.0     0     0.00      0     0.0  0.00   0.0   0.059   0.000   16.1    69   10.4   15.7    0.00   317    1     92.7   15 
11/04/19  23.00   12.6   12.7   12.5    87   10.4   0.0     N   0.00   4.8     N   12.6   12.6   12.6   10.8   800.1  0.00   0.0     0     0.00      0     0.0  0.00   0.0   0.060   0.000   16.1    69   10.4   15.7    0.00   266    1     77.8   15 
11/04/19  23.15   12.3   12.6   12.3    87   10.2   0.0   ---   0.00   0.0   ---   12.3   12.3   12.3   10.6   800.1  0.00   0.0     0     0.00      0     0.0  0.00   0.0   0.062   0.000   16.0    69   10.3   15.7    0.00   324    1     94.7   15 
11/04/19  23.30   12.3   12.3   12.3    86   10.0   0.0   ---   0.00   0.0   ---   12.3   12.2   12.2   10.5   800.1  0.00   0.0     0     0.00      0     0.0  0.00   0.0   0.063   0.000   16.0    69   10.3   15.7    0.00   333    1     97.4   15 
11/04/19  23.45   12.3   12.3   12.3    86   10.0   0.0   ---   0.00   0.0   ---   12.3   12.2   12.2   10.5   800.1  0.00   0.0     0     0.00      0     0.0  0.00   0.0   0.063   0.000   16.0    69   10.3   15.7    0.00   326    1     95.3   15 
12/04/19  00.00   12.4   12.4   12.2    86   10.1   0.0     N   0.00   1.6     N   12.4   12.3   12.3   10.6   800.1  0.00   0.0     0     0.00      0     0.0  0.00   0.0   0.062   0.000   16.0    69   10.3   15.7    0.00   342    1    100.0   15 
12/04/19   0.15   12.6   12.6   12.4    86   10.3   0.0   ---   0.00   0.0   ---   12.6   12.5   12.5   10.8   800.1  0.00   0.0     0     0.00      0     0.0  0.00   0.0   0.060   0.000   16.0    69   10.3   15.7    0.00   337    1     98.5   15 
12/04/19   0.30   12.7   12.7   12.6    85   10.2   0.0     N   0.00   1.6     N   12.7   12.6   12.6   10.9   800.1  0.00   0.0     0     0.00      0     0.0  0.00   0.0   0.059   0.000   16.0    69   10.3   15.7    0.00   318    1     93.0   15 
12/04/19   0.45   12.6   12.7   12.6    86   10.3   0.0     N   0.00   1.6     N   12.6   12.6   12.6   10.8   800.1  0.00   0.0     0     0.00      0     0.0  0.00   0.0   0.060   0.000   15.9    69   10.2   15.6    0.00   326    1     95.3   15 
12/04/19   1.00   12.7   12.8   12.6    86   10.4   0.0     N   0.00   1.6     N   12.7   12.7   12.7   10.9   800.1  0.00   0.0     0     0.00      0     0.0  0.00   0.0   0.058   0.000   15.9    69   10.2   15.6    0.00   310    1     90.6   15 
12/04/19   1.15   12.6   12.7   12.6    86   10.3   3.2     N   0.80   8.0     N   12.6   12.6   12.6   10.8   800.1  0.00   0.0     0     0.00      0     0.0  0.00   0.0   0.060   0.000   15.9    69   10.2   15.6    0.00   257    1     75.1   15 
12/04/19   1.30   12.7   12.7   12.6    86   10.4   1.6     N   0.40   8.0     N   12.7   12.7   12.7   10.9   800.1  0.00   0.0     0     0.00      0     0.0  0.00   0.0   0.058   0.000   15.9    69   10.2   15.6    0.00   251    1     73.4   15 
12/04/19   1.45   12.7   12.7   12.6    86   10.4   0.0   ---   0.00   0.0   ---   12.7   12.6   12.6   10.9   800.1  0.00   0.0     0     0.00      0     0.0  0.00   0.0   0.059   0.000   15.9    69   10.2   15.6    0.00   305    1     89.2   15 
12/04/19   2.00   12.6   12.7   12.6    87   10.5   0.0     N   0.00   1.6     N   12.6   12.6   12.6   10.9   800.1  0.00   0.0     0     0.00      0     0.0  0.00   0.0   0.060   0.000   15.9    69   10.2   15.6    0.00   302    1     88.3   15 
12/04/19   2.15   12.7   12.7   12.6    87   10.6   0.0     N   0.00   1.6     N   12.7   12.7   12.7   11.0   800.1  0.00   0.0     0     0.00      0     0.0  0.00   0.0   0.059   0.000   15.9    69   10.2   15.6    0.00   282    1     82.5   15 
12/04/19   2.30   12.7   12.7   12.7    87   10.6   1.6     N   0.40   8.0     N   12.7   12.7   12.7   11.0   800.1  0.00   0.0     0     0.00      0     0.0  0.00   0.0   0.059   0.000   15.9    70   10.4   15.6    0.00   246    1     71.9   15 
12/04/19   2.45   12.7   12.7   12.7    87   10.6   3.2     N   0.80   8.0     N   12.7   12.7   12.7   11.1   800.1  0.00   0.0     0     0.00      0     0.0  0.00   0.0   0.058   0.000   15.9    70   10.4   15.6    0.00   262    1     76.6   15 
12/04/19   3.00   12.7   12.7   12.7    87   10.6   1.6     N   0.40   9.7     N   12.7   12.7   12.7   11.0   800.1  0.00   0.0     0     0.00      0     0.0  0.00   0.0   0.059   0.000   15.9    70   10.4   15.6    0.00   270    1     78.9   15 
12/04/19   3.15   12.6   12.7   12.6    87   10.4   0.0     N   0.00   6.4     N   12.6   12.6   12.6   10.8   800.1  0.00   0.0     0     0.00      0     0.0  0.00   0.0   0.060   0.000   15.9    70   10.4   15.6    0.00   257    1     75.1   15 
12/04/19   3.30   12.6   12.6   12.6    87   10.5   3.2     N   0.80   9.7     N   12.6   12.6   12.6   10.9   800.1  0.00   0.0     0     0.00      0     0.0  0.00   0.0   0.060   0.000   15.9    70   10.4   15.6    0.00   250    1     73.1   15 
12/04/19   3.45   12.6   12.7   12.6    88   10.6   6.4     N   1.61  16.1     N   12.3   12.6   12.3   10.7   800.1  0.00   0.0     0     0.00      0     0.0  0.00   0.0   0.060   0.000   15.9    70   10.4   15.6    0.00   269    1     78.7   15 
12/04/19   4.00   12.4   12.6   12.3    89   10.6   6.4     N   1.61  11.3     N   12.1   12.4   12.2   10.5   800.1  0.00   0.0     0     0.00      0     0.0  0.00   0.0   0.062   0.000   15.8    70   10.3   15.4    0.00   260    1     76.0   15 
12/04/19   4.15   12.3   12.4   12.3    89   10.6   3.2     N   0.80  11.3     N   12.3   12.4   12.4   10.7   800.1  0.00   0.0     0     0.00      0     0.0  0.00   0.0   0.062   0.000   15.8    70   10.3   15.4    0.00   260    1     76.0   15 
12/04/19   4.30   12.4   12.4   12.3    88   10.5   3.2     N   0.80  11.3     N   12.4   12.4   12.4   10.7   800.1  0.00   0.0     0     0.00      0     0.0  0.00   0.0   0.062   0.000   15.8    70   10.3   15.4    0.00   251    1     73.4   15 
12/04/19   4.45   12.4   12.5   12.4    88   10.5   4.8     N   1.21  11.3     N   12.4   12.4   12.4   10.7   800.1  0.00   0.0     0     0.00      0     0.0  0.00   0.0   0.061   0.000   15.8    70   10.3   15.4    0.00   252    1     73.7   15 
12/04/19   5.00   12.4   12.5   12.4    88   10.5   3.2     N   0.80   9.7     N   12.4   12.4   12.4   10.7   800.1  0.00   0.0     0     0.00      0     0.0  0.00   0.0   0.062   0.000   15.8    70   10.3   15.4    0.00   250    1     73.1   15 
12/04/19   5.15   12.4   12.4   12.3    88   10.5   1.6     N   0.40   9.7     N   12.4   12.4   12.4   10.7   800.1  0.00   0.0     0     0.00      0     0.0  0.00   0.0   0.062   0.000   15.8    70   10.3   15.4    0.00   253    1     74.0   15 
12/04/19   5.30   12.4   12.4   12.4    88   10.5   0.0     N   0.00   6.4     N   12.4   12.4   12.4   10.7   800.1  0.00   0.0     0     0.00      0     0.0  0.00   0.0   0.062   0.000   15.8    70   10.3   15.4    0.00   238    1     69.6   15 
12/04/19   5.45   12.3   12.4   12.3    88   10.4   0.0     N   0.00   1.6     N   12.3   12.3   12.3   10.6   800.1  0.00   0.0     0     0.00      0     0.0  0.00   0.0   0.062   0.000   15.8    70   10.3   15.4    0.00   234    1     68.4   15 
12/04/19   6.00   12.3   12.3   12.3    88   10.4   0.0     N   0.00   1.6     N   12.3   12.3   12.3   10.6   800.1  0.00   0.0     0     0.00      0     0.0  0.00   0.0   0.062   0.000   15.8    70   10.3   15.4    0.00   255    1     74.6   15 
12/04/19   6.15   12.4   12.4   12.3    88   10.5   0.0     N   0.00   8.0     N   12.4   12.4   12.4   10.7   800.1  0.00   0.0     0     0.00      0     0.0  0.00   0.0   0.062   0.000   15.8    70   10.3   15.4    0.00   249    1     72.8   15 
12/04/19   6.30   12.4   12.5   12.4    88   10.5   6.4     N   1.61   9.7     N   12.2   12.4   12.2   10.4   800.1  0.00   0.0     0     0.00      0     0.0  0.00   0.0   0.061   0.000   15.7    70   10.3   15.4    0.00   253    1     74.0   15 
12/04/19   6.45   12.4   12.4   12.3    87   10.3   4.8     N   1.21  11.3     N   12.4   12.4   12.4   10.8   800.1  0.00   0.0     5     0.11     11     0.0  0.00   0.0   0.062   0.000   15.7    70   10.3   15.4    0.00   256    1     74.9   15 
12/04/19   7.00   12.4   12.4   12.4    87   10.3   4.8     N   1.21   9.7     N   12.4   12.4   12.4   10.9   800.1  0.00   0.0    20     0.43     28     0.0  0.00   0.0   0.062   0.000   15.7    70   10.3   15.4    0.00   251    1     73.4   15 
12/04/19   7.15   12.4   12.4   12.4    87   10.3   1.6     N   0.40   8.0     N   12.4   12.4   12.4   11.2   800.1  0.00   0.0    35     0.75     40     0.0  0.00   0.0   0.061   0.000   15.7    70   10.3   15.4    0.00   256    1     74.9   15 
12/04/19   7.30   12.5   12.5   12.4    87   10.4   0.0     N   0.00   8.0     N   12.5   12.5   12.5   11.4   800.1  0.00   0.0    51     1.10     63     0.0  0.00   0.0   0.061   0.000   15.7    70   10.3   15.4    0.00   259    1     75.7   15 
12/04/19   7.45   12.7   12.7   12.5    87   10.6   1.6     N   0.40   6.4     N   12.7   12.7   12.7   11.9   800.1  0.00   0.0    78     1.68     90     0.0  0.00   0.0   0.059   0.000   15.8    70   10.3   15.4    0.00   245    1     71.6   15 
12/04/19   8.00   12.8   12.8   12.7    86   10.5   0.0     N   0.00   4.8     N   12.8   12.8   12.8   12.2   800.1  0.00   0.0    96     2.06    109     0.0  0.00   0.0   0.057   0.000   15.8    70   10.3   15.4    0.03   288    1     84.2   15 
12/04/19   8.15   13.2   13.2   12.8    86   10.9   0.0     N   0.00   4.8     N   13.2   13.1   13.1   14.6   800.1  0.00   0.0   117     2.52    123     0.0  0.00   0.0   0.054   0.000   15.8    70   10.3   15.4    0.00   289    1     84.5   15 
12/04/19   8.30   13.4   13.4   13.2    85   11.0   3.2     N   0.80  11.3     N   13.4   13.4   13.4   15.7   800.1  0.00   0.0   154     3.31    202     0.0  0.00   0.0   0.051   0.000   15.8    70   10.3   15.4    0.00   257    1     75.1   15 
12/04/19   8.45   13.9   13.9   13.4    83   11.0   4.8     N   1.21  11.3     N   13.9   13.8   13.8   17.6   800.1  0.00   0.0   245     5.27    283     0.0  0.00   0.0   0.046   0.000   15.9    70   10.4   15.6    0.00   278    1     81.3   15 
12/04/19   9.00   14.0   14.2   13.9    82   11.0   4.8     N   1.21  16.1     N   14.0   13.9   13.9   19.2   800.1  0.00   0.0   336     7.22    404     0.0  0.00   0.0   0.045   0.000   15.9    70   10.4   15.6    0.13   306    1     89.5   15 
12/04/19   9.15   14.2   14.4   14.0    81   11.0   6.4     N   1.61  14.5     N   14.2   14.1   14.1   20.3   800.1  0.00   0.0   409     8.79    608     0.0  0.00   0.0   0.043   0.000   16.0    70   10.5   15.7    0.00   346    1    100.0   15 
12/04/19   9.30   14.1   14.2   13.8    80   10.7   9.7   NNE   2.41  17.7     N   13.6   13.9   13.4   18.2   800.1  0.00   0.0   332     7.14    570     0.0  0.00   0.0   0.045   0.000   16.0    70   10.5   15.7    0.00   352    1    100.0   15 
12/04/19   9.45   14.0   14.1   13.9    81   10.8   6.4   NNE   1.61  14.5   NNE   14.0   13.9   13.9   17.1   800.1  0.00   0.0   224     4.82    299     0.0  0.00   0.0   0.045   0.000   16.0    70   10.5   15.7    0.00   350    1    100.0   15 
12/04/19  10.00   14.3   14.4   14.0    79   10.7   6.4     N   1.61  16.1   NNE   14.3   14.2   14.2   19.1   800.1  0.00   0.0   366     7.87    633     0.0  0.00   0.0   0.042   0.000   16.1    70   10.6   15.7    0.20   349    1    100.0   15 
12/04/19  10.15   14.6   14.7   14.3    78   10.8   6.4     N   1.61  14.5     N   14.6   14.4   14.4   20.5   800.1  0.00   0.0   533    11.46    867     0.0  0.00   0.0   0.039   0.000   16.2    70   10.7   15.8    0.00   349    1    100.0   15 
12/04/19  10.30   15.1   15.1   14.4    74   10.5   3.2     N   0.80  14.5     N   15.1   14.8   14.8   20.3   800.1  0.00   0.0   475    10.21    853     0.0  0.00   0.0   0.034   0.000   16.2    69   10.5   15.8    0.00   350    1    100.0   15 
12/04/19  10.45   14.8   15.1   14.7    72    9.8   6.4     N   1.61  14.5     N   14.8   14.5   14.5   18.9   800.1  0.00   0.0   363     7.81    677     0.0  0.00   0.0   0.036   0.000   16.2    68   10.3   15.8    0.00   347    1    100.0   15 
12/04/19  11.00   15.0   15.1   14.7    73   10.2   4.8     N   1.21  12.9     N   15.0   14.7   14.7   17.3   800.1  0.00   0.0   233     5.01    253     0.0  0.00   0.0   0.035   0.000   16.2    68   10.3   15.8    0.25   350    1    100.0   15 
12/04/19  11.15   14.7   14.9   14.7    72    9.7   6.4     N   1.61  17.7     N   14.7   14.4   14.4   16.9   800.1  0.00   0.0   234     5.03    327     0.0  0.00   0.0   0.038   0.000   16.2    68   10.3   15.8    0.00   350    1    100.0   15 
12/04/19  11.30   14.8   14.9   14.7    76   10.6   3.2   NNE   0.80  14.5    NE   14.8   14.6   14.6   17.3   800.1  0.00   0.0   250     5.38    315     0.0  0.00   0.0   0.036   0.000   16.2    68   10.3   15.8    0.00   350    1    100.0   15 
12/04/19  11.45   15.3   15.3   14.6    78   11.5   6.4   ENE   1.61  16.1     E   15.3   15.2   15.2   20.8  1085.9  0.00   0.0   538    11.57   1106     0.1  0.01   0.7   0.031   0.000   16.2    69   10.5   15.9    0.00   351    1    100.0   15 
12/04/19  12.00   15.8   15.8   15.2    76   11.6   6.4     E   1.61  17.7     E   15.8   15.6   15.6   22.7  1085.3  0.00   0.0   816    17.55   1132     0.2  0.02   0.8   0.027   0.000   16.6    69   10.9   16.3    0.28   350    1    100.0   15 
12/04/19  12.15   15.3   15.8   14.7    78   11.5   4.8   ESE   1.21  17.7   ESE   15.3   15.1   15.1   20.2  1085.3  0.00   0.0   479    10.30   1100     0.1  0.01   0.7   0.032   0.000   16.7    69   11.0   16.4    0.00   348    1    100.0   15 
12/04/19  12.30   15.1   15.6   14.8    78   11.2   4.8   ESE   1.21  11.3   ESE   15.1   14.9   14.9   19.4  1085.3  0.00   0.0   423     9.10    461     0.0  0.00   0.0   0.034   0.000   16.7    69   11.0   16.4    0.00   343    1    100.0   15 
12/04/19  12.45   14.9   15.3   14.9    78   11.1   3.2   ESE   0.80  11.3   ESE   14.9   14.8   14.8   19.1  1085.3  0.00   0.0   407     8.75    473     0.1  0.01   1.3   0.035   0.000   16.8    69   11.1   16.5    0.00   339    1     99.1   15 
12/04/19  13.00   15.8   15.8   14.8    75   11.4   3.2   ESE   0.80  11.3   ESE   15.8   15.6   15.6   23.6  1085.3  0.00   0.0   955    20.54   1004     1.3  0.14   1.4   0.026   0.000   16.8    68   10.9   16.6    0.33   347    1    100.0   15 
12/04/19  13.15   15.7   16.1   15.4    73   10.9   4.8   ESE   1.21  14.5   ESE   15.7   15.4   15.4   23.6  1085.3  0.00   0.0   981    21.09   1020     1.2  0.13   1.6   0.027   0.000   16.9    68   11.0   16.7    0.00   337    1     98.5   15 
12/04/19  13.30   15.9   16.1   15.3    74   11.3   6.4   ESE   1.61  17.7   ESE   15.9   15.7   15.7   24.3  1085.3  0.00   0.0  1017    21.87   1062     1.4  0.15   1.6   0.025   0.000   17.1    68   11.2   16.8    0.00   347    1    100.0   15 
12/04/19  13.45   15.8   16.3   15.7    73   10.9   4.8   ESE   1.21  11.3   ESE   15.8   15.5   15.5   23.9  1085.1  0.00   0.0   990    21.29   1055     1.5  0.16   1.6   0.027   0.000   17.2    68   11.3   17.0    0.00   347    1    100.0   15 
12/04/19  14.00   15.8   15.9   15.6    75   11.4   6.4   ESE   1.61  14.5   ESE   15.8   15.6   15.6   23.7   716.0  0.00   0.0   938    20.17   1020     1.3  0.14   1.4   0.026   0.000   17.3    67   11.1   17.0    0.58   349    1    100.0   15 
12/04/19  14.15   16.3   16.8   15.8    72   11.2   3.2   ESE   0.80  11.3   ESE   16.3   16.0   16.0   23.9   716.0  0.00   0.0   910    19.57   1148     0.9  0.10   1.6   0.021   0.000   17.4    67   11.2   17.1    0.00   348    1    100.0   15 
12/04/19  14.30   15.2   16.3   15.2    75   10.8   3.2   ESE   0.80  11.3   ESE   15.2   14.9   14.9   18.2   799.5  0.00   0.0   303     6.52    322     0.0  0.00   0.0   0.032   0.000   17.3    67   11.1   17.0    0.00   349    1    100.0   15 
12/04/19  14.45   15.4   15.6   15.2    74   10.8   3.2   ESE   0.80  11.3   ESE   15.4   15.1   15.1   18.6   691.1  0.00   0.0   316     6.79    872     0.0  0.00   0.0   0.031   0.000   17.3    67   11.1   17.0    0.00   350    1    100.0   15 
12/04/19  15.00   16.2   16.2   15.4    72   11.2   1.6   ESE   0.40   9.7   ESE   16.2   15.9   15.9   21.7   691.1  0.00   0.0   549    11.81   1004     0.0  0.00   0.0   0.022   0.000   17.3    67   11.1   17.0    0.33   350    1    100.0   15 
12/04/19  15.15   16.4   16.5   16.1    71   11.1   0.0   ESE   0.00   8.0   ESE   16.4   16.1   16.1   22.2   800.1  0.00   0.0   647    13.91    995     0.0  0.00   0.0   0.020   0.000   17.4    67   11.2   17.1    0.00   349    1    100.0   15 
12/04/19  15.30   16.4   16.4   16.0    72   11.3   1.6   ESE   0.40  14.5   ESE   16.4   16.2   16.2   19.9   745.8  0.00   0.0   307     6.60    780     0.0  0.00   0.0   0.020   0.000   17.4    67   11.2   17.1    0.00   351    1    100.0   15 
12/04/19  15.45   16.1   16.7   16.0    71   10.8   9.7     E   2.41  19.3   ENE   16.0   15.8   15.7   25.2   854.3  0.00   0.0   844    18.15    893     0.0  0.00   0.0   0.023   0.000   17.4    67   11.2   17.2    0.00   346    1    100.0   15 
12/04/19  16.00   15.2   16.1   15.1    71    9.9  11.3    NE   2.82  22.5    NE   14.7   14.8   14.3   15.6   854.3  0.00   0.0   134     2.88    171     0.0  0.00   0.0   0.033   0.000   17.4    67   11.2   17.2    0.28   342    1    100.0   15 
12/04/19  16.15   15.6   15.6   15.2    70   10.1  12.9    NE   3.22  20.9    NE   14.7   15.2   14.4   18.7   854.3  0.00   0.0   351     7.55    758     0.0  0.00   0.0   0.029   0.000   17.4    66   11.0   17.1    0.00   343    1    100.0   15 
12/04/19  16.30   15.7   16.1   15.6    70   10.3  14.5    NE   3.62  22.5   NNE   14.5   15.4   14.2   21.7   854.3  0.00   0.0   634    13.63    735     0.0  0.00   0.0   0.027   0.000   17.6    66   11.1   17.3    0.00   345    1    100.0   15 
12/04/19  16.45   16.0   16.3   15.7    68   10.1  11.3   NNE   2.82  24.1   NNE   15.7   15.6   15.3   22.6   854.3  0.00   0.0   539    11.59    717     0.0  0.00   0.0   0.024   0.000   17.7    66   11.3   17.5    0.00   340    1     99.4   15 
12/04/19  17.00   16.3   16.4   15.7    71   11.0   9.7   NNE   2.41  20.9   NNE   16.2   16.0   15.9   23.3   854.3  0.00   0.0   493    10.60    559     0.0  0.00   0.0   0.021   0.000   17.8    66   11.4   17.6    0.33   344    1    100.0   15 
12/04/19  17.15   16.4   16.7   16.2    73   11.6   9.7     N   2.41  22.5     N   16.4   16.2   16.2   24.9   854.3  0.00   0.0   528    11.35    534     0.0  0.00   0.0   0.020   0.000   18.0    65   11.3   17.8    0.00   344    1    100.0   15 
12/04/19  17.30   16.4   16.6   15.9    73   11.6   9.7   NNE   2.41  25.7   NNE   16.4   16.2   16.2   24.3   854.3  0.00   0.0   462     9.93    508     0.0  0.00   0.0   0.020   0.000   18.2    65   11.5   17.9    0.00   344    1    100.0   15 
12/04/19  17.45   16.3   16.6   16.3    75   11.9   9.7   NNE   2.41  22.5     N   16.3   16.2   16.1   24.4   854.3  0.00   0.0   442     9.50    459     0.0  0.00   0.0   0.021   0.000   18.1    65   11.4   17.9    0.00   341    1     99.7   15 
12/04/19  18.00   15.6   16.3   15.4    78   11.8  12.9   NNE   3.22  22.5   NNE   14.8   15.5   14.7   21.1   854.3  0.00   0.0   349     7.50    446     0.0  0.00   0.0   0.028   0.000   18.0    65   11.3   17.8    0.28   345    1    100.0   15 
12/04/19  18.15   15.5   15.8   15.4    75   11.1  11.3   NNE   2.82  24.1     N   15.1   15.3   14.8   20.1   854.3  0.00   0.0   273     5.87    352     0.0  0.00   0.0   0.030   0.000   17.8    65   11.2   17.6    0.00   342    1    100.0   15 
12/04/19  18.30   15.4   15.7   15.4    78   11.6   6.4   NNE   1.61  17.7   NNE   15.4   15.3   15.3   15.2   854.3  0.00   0.0   130     2.80    172     0.0  0.00   0.0   0.031   0.000   17.7    66   11.3   17.5    0.00   349    1    100.0   15 
12/04/19  18.45   15.2   15.4   15.1    78   11.4   9.7     N   2.41  24.1     N   14.9   15.0   14.7   14.5   854.3  0.00   0.0   117     2.52    125     0.0  0.00   0.0   0.033   0.000   17.6    66   11.1   17.3    0.00   349    1    100.0   15 
12/04/19  19.00   14.9   15.2   14.8    75   10.5   9.7     N   2.41  22.5     N   14.6   14.6   14.3   13.7   854.3  0.00   0.0    91     1.96    114     0.0  0.00   0.0   0.036   0.000   17.4    66   11.0   17.2    0.10   346    1    100.0   15 
12/04/19  19.15   14.8   14.8   14.8    76   10.6   8.0   NNW   2.01  19.3   NNW   14.6   14.6   14.4   13.4   800.1  0.00   0.0    63     1.35     76     0.0  0.00   0.0   0.037   0.000   17.4    66   11.0   17.1    0.00   347    1    100.0   15 
12/04/19  19.30   14.6   14.8   14.6    77   10.6   8.0   NNW   2.01  20.9   NNW   14.3   14.3   14.1   12.9   745.2  0.00   0.0    37     0.80     49     0.0  0.00   0.0   0.039   0.000   17.3    66   10.9   17.0    0.00   344    1    100.0   15 
12/04/19  19.45   14.3   14.6   14.3    78   10.5   4.8   NNW   1.21  11.3   NNW   14.3   14.1   14.1   12.6   745.2  0.00   0.0    17     0.37     25     0.0  0.00   0.0   0.042   0.000   17.2    67   11.0   16.9    0.00   348    1    100.0   15 
12/04/19  20.00   14.3   14.3   14.2    76   10.1   6.4   NNW   1.61  17.7   NNW   14.3   14.1   14.1   12.4   551.7  0.00   0.0     2     0.04      9     0.0  0.00   0.0   0.042   0.000   17.1    67   10.9   16.8    0.05   347    1    100.0   15 
12/04/19  20.15   14.1   14.4   14.1    75    9.7   8.0   NNW   2.01  17.7   NNW   13.8   13.8   13.6   11.8   817.2  0.00   0.0     0     0.00      0     0.0  0.00   0.0   0.044   0.000   17.1    67   10.9   16.8    0.00   345    1    100.0   15 
12/04/19  20.30   13.9   14.1   13.9    75    9.6   6.4   NNW   1.61  16.1   NNW   13.9   13.7   13.7   11.9   551.7  0.00   0.0     0     0.00      0     0.0  0.00   0.0   0.046   0.000   17.0    66   10.6   16.7    0.00   347    1    100.0   15 
12/04/19  20.45   14.1   14.1   14.0    74    9.5   6.4   NNW   1.61  14.5   NNW   14.1   13.7   13.7   12.0   551.7  0.00   0.0     0     0.00      0     0.0  0.00   0.0   0.045   0.000   16.9    66   10.5   16.6    0.00   345    1    100.0   15 
12/04/19  21.00   14.1   14.1   14.0    75    9.7   6.4   NNW   1.61  14.5   NNW   14.1   13.8   13.8   12.1   551.7  0.00   0.0     0     0.00      0     0.0  0.00   0.0   0.045   0.000   16.9    66   10.5   16.6    0.03   348    1    100.0   15 
12/04/19  21.15   14.3   14.3   14.1    76   10.2   6.4   NNW   1.61  12.9   NNW   14.3   14.1   14.1   12.4   551.7  0.00   0.0     0     0.00      0     0.0  0.00   0.0   0.042   0.000   16.8    66   10.4   16.5    0.00   342    1    100.0   15 
12/04/19  21.30   14.4   14.4   14.3    77   10.5   4.8   NNW   1.21  14.5   NNW   14.4   14.2   14.2   12.5   551.7  0.00   0.0     0     0.00      0     0.0  0.00   0.0   0.041   0.000   16.8    66   10.4   16.5    0.00   348    1    100.0   15 
12/04/19  21.45   14.6   14.6   14.4    78   10.8   4.8   NNW   1.21  11.3   NNW   14.6   14.4   14.4   12.7   551.7  0.00   0.0     0     0.00      0     0.0  0.00   0.0   0.039   0.000   16.8    66   10.4   16.5    0.00   347    1    100.0   15 
12/04/19  22.00   14.6   14.6   14.6    79   11.0   1.6   NNW   0.40   8.0   NNW   14.6   14.4   14.4   12.7   551.7  0.00   0.0     0     0.00      0     0.0  0.00   0.0   0.039   0.000   16.8    66   10.4   16.4    0.03   350    1    100.0   15 
12/04/19  22.15   14.3   14.6   14.3    79   10.7   0.0   NNW   0.00   3.2   NNW   14.3   14.2   14.2   12.5   551.7  0.00   0.0     0     0.00      0     0.0  0.00   0.0   0.042   0.000   16.8    67   10.6   16.4    0.00   350    1    100.0   15 
12/04/19  22.30   14.3   14.3   14.2    80   10.9   0.0   ---   0.00   0.0   ---   14.3   14.2   14.2   12.5   551.7  0.00   0.0     0     0.00      0     0.0  0.00   0.0   0.042   0.000   16.8    67   10.6   16.4    0.00   351    1    100.0   15 
12/04/19  22.45   14.2   14.3   14.2    81   11.0   0.0   ---   0.00   0.0   ---   14.2   14.1   14.1   12.4   551.7  0.00   0.0     0     0.00      0     0.0  0.00   0.0   0.043   0.000   16.8    67   10.6   16.4    0.00   351    1    100.0   15 
12/04/19  23.00   14.0   14.2   14.0    82   11.0   0.0   NNW   0.00   4.8   NNW   14.0   13.9   13.9   12.2   551.7  0.00   0.0     0     0.00      0     0.0  0.00   0.0   0.045   0.000   16.7    67   10.5   16.3    0.03   351    1    100.0   15 
12/04/19  23.15   13.9   14.0   13.9    82   10.9   0.0   NNW   0.00   1.6   NNW   13.9   13.8   13.8   12.1   581.3  0.00   0.0     0     0.00      0     0.0  0.00   0.0   0.046   0.000   16.7    68   10.7   16.3    0.00   350    1    100.0   15 
12/04/19  23.30   13.9   13.9   13.9    82   10.9   0.0   NNW   0.00   1.6   NNW   13.9   13.8   13.8   12.1   581.3  0.00   0.0     0     0.00      0     0.0  0.00   0.0   0.046   0.000   16.7    68   10.7   16.3    0.00   351    1    100.0   15 
12/04/19  23.45   14.2   14.2   13.9    80   10.8   3.2   NNW   0.80   9.7   NNW   14.2   14.1   14.1   12.4   581.3  0.00   0.0     0     0.00      0     0.0  0.00   0.0   0.043   0.000   16.7    68   10.7   16.3    0.00   348    1    100.0   15 
13/04/19  00.00   14.3   14.3   14.2    81   11.1   4.8   NNW   1.21  11.3   NNW   14.3   14.2   14.2   12.6   581.3  0.00   0.0     0     0.00      0     0.0  0.00   0.0   0.042   0.000   16.7    68   10.7   16.3    0.03   350    1    100.0   15 
13/04/19   0.15   14.1   14.3   14.1    82   11.1   3.2   NNW   0.80   9.7   NNW   14.1   14.0   14.0   12.3   581.3  0.00   0.0     0     0.00      0     0.0  0.00   0.0   0.044   0.000   16.6    68   10.7   16.3    0.00   348    1    100.0   15 
13/04/19   0.30   14.1   14.2   14.1    82   11.0   4.8   NNW   1.21   9.7   NNW   14.1   13.9   13.9   12.3   581.3  0.00   0.0     0     0.00      0     0.0  0.00   0.0   0.045   0.000   16.6    68   10.7   16.3    0.00   351    1    100.0   15 
13/04/19   0.45   14.0   14.1   14.0    82   11.0   3.2   NNW   0.80   8.0   NNW   14.0   13.9   13.9   12.2   581.3  0.00   0.0     0     0.00      0     0.0  0.00   0.0   0.045   0.000   16.6    68   10.7   16.3    0.00   349    1    100.0   15 
13/04/19   1.00   13.9   14.0   13.9    82   10.9   3.2   NNW   0.80  11.3   NNW   13.9   13.8   13.8   12.1   581.3  0.00   0.0     0     0.00      0     0.0  0.00   0.0   0.046   0.000   16.6    68   10.7   16.3    0.03   352    1    100.0   15 
13/04/19   1.15   13.7   13.9   13.7    83   10.9   1.6   NNW   0.40   9.7   NNW   13.7   13.6   13.6   11.9   581.3  0.00   0.0     0     0.00      0     0.0  0.00   0.0   0.048   0.000   16.6    68   10.7   16.3    0.00   351    1    100.0   15 
13/04/19   1.30   13.6   13.7   13.6    85   11.1   3.2   NNW   0.80  11.3   NNW   13.6   13.6   13.6   11.9   581.3  0.00   0.0     0     0.00      0     0.0  0.00   0.0   0.049   0.000   16.6    68   10.7   16.3    0.00   348    1    100.0   15 
13/04/19   1.45   13.5   13.7   13.5    81   10.3   6.4   NNW   1.61  12.9   NNW   13.4   13.3   13.3   11.6   581.3  0.00   0.0     0     0.00      0     0.0  0.00   0.0   0.050   0.000   16.6    69   10.9   16.3    0.00   348    1    100.0   15 
13/04/19   2.00   13.6   13.7   13.4    76    9.4   8.0   NNW   2.01  17.7   NNW   13.2   13.3   12.9   11.2   581.3  0.00   0.0     0     0.00      0     0.0  0.00   0.0   0.050   0.000   16.5    68   10.6   16.2    0.03   349    1    100.0   15 
13/04/19   2.15   13.5   13.6   13.4    74    9.0   8.0   NNW   2.01  20.9   NNW   13.1   13.2   12.8   11.1   581.3  0.00   0.0     0     0.00      0     0.0  0.00   0.0   0.050   0.000   16.5    68   10.6   16.2    0.00   344    1    100.0   15 
13/04/19   2.30   13.3   13.5   13.3    76    9.1   6.4   NNW   1.61  16.1   NNW   13.2   13.0   12.9   11.2   581.3  0.00   0.0     0     0.00      0     0.0  0.00   0.0   0.053   0.000   16.5    67   10.3   16.2    0.00   345    1    100.0   15 
13/04/19   2.45   13.1   13.3   13.1    79    9.5   9.7   NNW   2.41  20.9   NNW   12.3   12.9   12.2   10.4   581.3  0.00   0.0     0     0.00      0     0.0  0.00   0.0   0.055   0.000   16.5    67   10.3   16.2    0.00   345    1    100.0   15 
13/04/19   3.00   12.8   13.1   12.8    78    9.0  11.3   NNW   2.82  25.7   NNW   11.8   12.6   11.6    9.8   581.3  0.00   0.0     0     0.00      0     0.0  0.00   0.0   0.058   0.000   16.5    67   10.3   16.2    0.03   341    1     99.7   15 
13/04/19   3.15   12.7   12.8   12.7    77    8.8   6.4   NNW   1.61  20.9   NNW   12.5   12.5   12.3   10.5   581.3  0.00   0.0     0     0.00      0     0.0  0.00   0.0   0.058   0.000   16.4    67   10.2   16.0    0.00   346    1    100.0   15 
13/04/19   3.30   12.1   12.7   12.1    77    8.1  11.3   NNW   2.82  32.2   NNW   10.9   11.8   10.7    8.9   581.3  0.00   0.0     0     0.00      0     0.0  0.00   0.0   0.065   0.000   16.4    66   10.0   16.0    0.00   340    1     99.4   15 
13/04/19   3.45   11.7   12.0   11.7    78    8.0  11.3   NNW   2.82  24.1   NNW   10.4   11.4   10.2    8.4   581.3  0.00   0.0     0     0.00      0     0.0  0.00   0.0   0.069   0.000   16.4    66   10.0   16.0    0.00   307    1     89.8   15 
13/04/19   4.00   11.6   11.7   11.5    79    8.1   8.0   NNW   2.01  16.1   NNW   10.9   11.4   10.7    8.9   581.3  0.00   0.0     0     0.00      0     0.0  0.00   0.0   0.070   0.000   16.3    65    9.7   15.9    0.03   312    1     91.2   15 
13/04/19   4.15   11.5   11.7   11.5    80    8.2   6.4   NNW   1.61  20.9   NNW   11.1   11.3   10.9    9.2   581.3  0.00   0.0     0     0.00      0     0.0  0.00   0.0   0.071   0.000   16.3    65    9.7   15.9    0.00   326    1     95.3   15 
13/04/19   4.30   10.8   11.5   10.8    84    8.2   6.4   NNW   1.61  19.3   NNW   10.3   10.8   10.3    8.6   581.3  0.00   0.0     0     0.00      0     0.0  0.00   0.0   0.078   0.000   16.2    65    9.6   15.8    0.00   343    1    100.0   15 
13/04/19   4.45   10.7   10.8   10.6    85    8.2   6.4   NNW   1.61  16.1   NNW   10.1   10.7   10.1    8.3   581.3  0.00   0.0     0     0.00      0     0.0  0.00   0.0   0.080   0.000   16.2    65    9.6   15.8    0.00   350    1    100.0   15 
13/04/19   5.00   10.5   10.7   10.5    86    8.3   6.4   NNW   1.61  11.3   NNW    9.9   10.6   10.0    8.2   581.3  0.25   0.0     0     0.00      0     0.0  0.00   0.0   0.082   0.000   16.2    65    9.6   15.8    0.03   350    1    100.0   15 
13/04/19   5.15   10.5   10.5   10.3    86    8.3   8.0   NNW   2.01  19.3   NNW    9.6   10.6    9.7    7.9   581.3  0.00   0.0     0     0.00      0     0.0  0.00   0.0   0.082   0.000   16.2    65    9.6   15.7    0.00   352    1    100.0   15 
13/04/19   5.30   10.4   10.5   10.4    86    8.1   8.0   NNW   2.01  19.3    NW    9.4   10.4    9.5    7.7   581.3  0.00   0.0     0     0.00      0     0.0  0.00   0.0   0.083   0.000   16.2    65    9.6   15.7    0.00   350    1    100.0   15 
13/04/19   5.45   10.3   10.4   10.3    86    8.1   6.4   NNW   1.61  17.7   NNW    9.8   10.4    9.8    8.1   581.3  0.00   0.0     0     0.00      0     0.0  0.00   0.0   0.083   0.000   16.2    65    9.6   15.7    0.00   349    1    100.0   15 
13/04/19   6.00   10.4   10.4   10.3    86    8.2   4.8   NNW   1.21  12.9   NNW   10.3   10.5   10.4    8.6   581.3  0.00   0.0     0     0.00      0     0.0  0.00   0.0   0.082   0.000   16.2    65    9.6   15.7    0.03   350    1    100.0   15 
13/04/19   6.15   10.6   10.6   10.4    86    8.3   4.8   NNW   1.21  14.5   NNW   10.4   10.6   10.4    8.7   581.3  0.00   0.0     0     0.00      0     0.0  0.00   0.0   0.081   0.000   16.1    65    9.5   15.6    0.00   351    1    100.0   15 
13/04/19   6.30   10.6   10.6   10.5    86    8.3   1.6   NNW   0.40   8.0   NNW   10.6   10.6   10.6    8.8   581.3  0.00   0.0     0     0.00      0     0.0  0.00   0.0   0.081   0.000   16.1    65    9.5   15.6    0.00   352    1    100.0   15 
13/04/19   6.45   10.6   10.7   10.5    86    8.4   3.2   NNW   0.80  11.3   NNW   10.6   10.6   10.6    8.8   581.3  0.00   0.0     0     0.00      5     0.0  0.00   0.0   0.080   0.000   16.1    65    9.5   15.6    0.00   351    1    100.0   15 
13/04/19   7.00   10.7   10.7   10.6    86    8.4   3.2   NNW   0.80  11.3   NNW   10.7   10.7   10.7    9.1   581.3  0.00   0.0    16     0.34     23     0.0  0.00   0.0   0.080   0.000   16.1    65    9.5   15.6    0.00   351    1    100.0   15 
13/04/19   7.15   11.0   11.0   10.6    84    8.4   3.2   NNW   0.80  14.5   NNW   11.0   11.0   11.0    9.6   581.3  0.00   0.0    30     0.65     37     0.0  0.00   0.0   0.076   0.000   16.1    65    9.5   15.6    0.00   349    1    100.0   15 
13/04/19   7.30   11.0   11.0   10.9    84    8.4   3.2   NNW   0.80  11.3   NNW   11.0   11.0   11.0    9.8   581.3  0.00   0.0    46     0.99     56     0.0  0.00   0.0   0.076   0.000   16.1    65    9.5   15.6    0.00   351    1    100.0   15 
13/04/19   7.45   11.1   11.1   11.0    84    8.5   0.0   NNW   0.00   6.4   NNW   11.1   11.1   11.1   10.1   581.3  0.00   0.0    67     1.44     72     0.0  0.00   0.0   0.076   0.000   16.1    65    9.5   15.6    0.00   350    1    100.0   15 
13/04/19   8.00   11.1   11.1   11.1    84    8.5   1.6   NNW   0.40   8.0   NNW   11.1   11.1   11.1   10.2   581.3  0.00   0.0    76     1.63     83     0.0  0.00   0.0   0.076   0.000   16.1    65    9.5   15.6    0.03   350    1    100.0   15 
13/04/19   8.15   11.2   11.2   11.1    83    8.4   1.6   NNW   0.40   8.0   NNW   11.2   11.2   11.2   12.2   581.3  0.00   0.0    88     1.89     93     0.0  0.00   0.0   0.074   0.000   16.1    65    9.5   15.6    0.00   347    1    100.0   15 
13/04/19   8.30   11.3   11.3   11.2    83    8.5   0.0   NNW   0.00   4.8   NNW   11.3   11.2   11.2   12.5   581.3  0.00   0.0   100     2.15    109     0.0  0.00   0.0   0.073   0.000   16.1    65    9.5   15.6    0.00   351    1    100.0   15 
13/04/19   8.45   11.4   11.5   11.3    83    8.7   1.6   NNW   0.40   9.7   NNW   11.4   11.4   11.4   13.2   581.3  0.25   0.0   126     2.71    148     0.0  0.00   0.0   0.072   0.000   16.1    65    9.5   15.6    0.00   346    1    100.0   15 
13/04/19   9.00   11.6   11.7   11.4    81    8.5   1.6   NNW   0.40   9.7   NNW   11.6   11.5   11.5   13.7   581.3  0.00   0.0   152     3.27    155     0.0  0.00   0.0   0.070   0.000   16.1    65    9.5   15.6    0.05   351    1    100.0   15 
13/04/19   9.15   11.8   11.8   11.6    80    8.4   3.2   NNW   0.80  11.3   NNW   11.8   11.6   11.6   13.6   581.3  0.00   0.0   147     3.16    151     0.0  0.00   0.0   0.068   0.000   16.1    65    9.5   15.6    0.00   350    1    100.0   15 
13/04/19   9.30   11.8   11.9   11.8    78    8.1   4.8   NNW   1.21  14.5     N   11.8   11.6   11.6   13.6   581.3  0.00   0.0   156     3.35    172     0.0  0.00   0.0   0.068   0.000   16.2    65    9.6   15.7    0.00   351    1    100.0   15 
13/04/19   9.45   12.0   12.1   11.8    78    8.3   3.2     N   0.80  11.3     N   12.0   11.8   11.8   14.4   581.3  0.00   0.0   200     4.30    225     0.0  0.00   0.0   0.066   0.000   16.2    65    9.6   15.7    0.00   350    1    100.0   15 
13/04/19  10.00   12.2   12.2   12.0    77    8.3   3.2     N   0.80  11.3     N   12.2   12.0   12.0   15.0   581.3  0.00   0.0   230     4.95    236     0.0  0.00   0.0   0.064   0.000   16.2    65    9.6   15.7    0.10   351    1    100.0   15 
13/04/19  10.15   12.3   12.4   12.2    76    8.2   3.2     N   0.80   9.7     N   12.3   12.1   12.1   14.6   581.3  0.00   0.0   213     4.58    220     0.0  0.00   0.0   0.062   0.000   16.2    65    9.6   15.8    0.00   349    1    100.0   15 
13/04/19  10.30   12.4   12.4   12.3    75    8.1   4.8     N   1.21  11.3     N   12.4   12.1   12.1   15.0  1076.8  0.00   0.0   241     5.18    260     0.0  0.00   0.0   0.062   0.000   16.2    65    9.6   15.8    0.00   351    1    100.0   15 
13/04/19  10.45   12.6   12.6   12.3    74    8.0   6.4     N   1.61  17.7     N   12.3   12.2   12.0   15.2  1076.8  0.00   0.0   270     5.81    285     0.0  0.00   0.0   0.060   0.000   16.2    64    9.4   15.7    0.00   350    1    100.0   15 
13/04/19  11.00   12.7   12.8   12.5    74    8.2   6.4     N   1.61  16.1     N   12.5   12.4   12.2   15.6  1076.8  0.00   0.0   299     6.43    304     0.0  0.00   0.0   0.058   0.000   16.3    64    9.5   15.9    0.13   345    1    100.0   15 
13/04/19  11.15   12.8   13.1   12.7    75    8.5   4.8     N   1.21  16.1     N   12.8   12.5   12.5   16.1   952.8  0.00   0.0   315     6.77    345     0.0  0.00   0.0   0.058   0.000   16.3    64    9.5   15.9    0.00   349    1    100.0   15 
13/04/19  11.30   13.0   13.0   12.7    75    8.7   6.4     N   1.61  17.7     N   12.8   12.7   12.6   16.3  1085.5  0.00   0.0   342     7.35    352     0.0  0.00   0.0   0.056   0.000   16.3    64    9.5   15.9    0.00   349    1    100.0   15 
13/04/19  11.45   13.0   13.1   12.8    75    8.7   6.4     N   1.61  17.7     N   12.8   12.7   12.6   16.2  1085.5  0.00   0.0   340     7.31    353     0.0  0.00   0.0   0.056   0.000   16.4    64    9.6   15.9    0.00   351    1    100.0   15 
13/04/19  12.00   12.9   13.1   12.8    74    8.4   6.4   NNW   1.61  17.7     N   12.8   12.6   12.4   15.9  1085.5  0.00   0.0   329     7.07    341     0.0  0.00   0.0   0.056   0.000   16.4    64    9.6   15.9    0.18   348    1    100.0   15 
13/04/19  12.15   12.8   12.9   12.8    74    8.3   8.0     N   2.01  19.3     N   12.3   12.5   12.0   15.5  1085.5  0.00   0.0   334     7.18    352     0.0  0.00   0.0   0.057   0.000   16.5    64    9.7   16.1    0.00   348    1    100.0   15 
13/04/19  12.30   12.9   13.1   12.8    73    8.2   6.4     N   1.61  19.3     N   12.8   12.6   12.4   16.5  1085.5  0.00   0.0   391     8.41    454     0.0  0.00   0.0   0.056   0.000   16.5    64    9.7   16.1    0.00   351    1    100.0   15 
13/04/19  12.45   13.4   13.5   12.9    73    8.6   4.8     N   1.21  16.1   NNE   13.4   13.0   13.0   17.6  1085.5  0.00   0.0   444     9.55    487     0.0  0.00   0.0   0.052   0.000   16.5    63    9.4   16.0    0.00   349    1    100.0   15 
13/04/19  13.00   13.2   13.4   13.1    72    8.3   6.4   NNE   1.61  16.1     N   13.1   12.8   12.7   17.0  1085.5  0.00   0.0   415     8.92    446     0.0  0.00   0.0   0.053   0.000   16.6    64    9.8   16.2    0.20   346    1    100.0   15 
13/04/19  13.15   13.7   13.8   13.2    72    8.8   6.4   NNE   1.61  14.5     N   13.7   13.3   13.3   18.4   592.4  0.00   0.0   511    10.99    547     0.0  0.00   0.0   0.048   0.000   16.6    63    9.5   16.1    0.00   349    1    100.0   15 
13/04/19  13.30   13.7   13.8   13.5    70    8.3   4.8     N   1.21  16.1     N   13.7   13.3   13.3   18.0   592.4  0.00   0.0   463     9.96    496     0.0  0.00   0.0   0.048   0.000   16.7    63    9.6   16.2    0.00   347    1    100.0   15 
13/04/19  13.45   14.1   14.1   13.7    69    8.5   6.4     N   1.61  16.1     N   14.1   13.6   13.6   18.8   592.4  0.00   0.0   514    11.05    561     0.0  0.00   0.0   0.045   0.000   16.8    63    9.7   16.3    0.00   350    1    100.0   15 
13/04/19  14.00   14.5   14.5   13.9    68    8.7   4.8     N   1.21  16.1     N   14.5   14.0   14.0   19.8   592.4  0.00   0.0   617    13.27    670     0.0  0.00   0.0   0.040   0.000   16.8    63    9.7   16.3    0.28   351    1    100.0   15 
13/04/19  14.15   14.3   14.7   14.1    68    8.4   6.4   NNE   1.61  17.7   NNE   14.3   13.8   13.8   19.6   592.4  0.00   0.0   601    12.92    700     0.0  0.00   0.0   0.042   0.000   16.8    62    9.5   16.3    0.00   346    1    100.0   15 
13/04/19  14.30   14.3   14.5   14.2    67    8.3   9.7   NNE   2.41  19.3   NNE   13.9   13.8   13.4   19.1   592.4  0.00   0.0   585    12.58    654     0.0  0.00   0.0   0.042   0.000   16.9    62    9.6   16.4    0.00   350    1    100.0   15 
13/04/19  14.45   14.8   14.9   14.3    66    8.5   8.0   NNE   2.01  19.3   NNE   14.6   14.3   14.1   19.7   592.4  0.00   0.0   666    14.32    740     0.0  0.00   0.0   0.037   0.000   17.0    62    9.7   16.5    0.00   347    1    100.0   15 
13/04/19  15.00   14.8   15.0   14.7    67    8.7   8.0   NNE   2.01  25.7   NNE   14.6   14.3   14.1   21.0   592.4  0.00   0.0   759    16.32    784     0.0  0.00   0.0   0.037   0.000   17.2    62    9.9   16.7    0.38   351    1    100.0   15 
13/04/19  15.15   15.0   15.1   14.8    67    8.9   9.7   NNE   2.41  24.1   NNE   14.7   14.5   14.2   20.9   592.4  0.00   0.0   714    15.35    773     0.0  0.00   0.0   0.035   0.000   17.3    62    9.9   16.8    0.00   348    1    100.0   15 
13/04/19  15.30   14.9   15.1   14.5    67    8.9   9.7   NNE   2.41  19.3   NNE   14.6   14.4   14.1   20.4   745.9  0.00   0.0   653    14.04    691     0.0  0.00   0.0   0.035   0.000   17.4    62   10.0   16.9    0.00   346    1    100.0   15 
13/04/19  15.45   15.1   15.3   14.9    66    8.7   8.0   NNE   2.01  19.3   NNE   14.9   14.6   14.4   21.6   854.3  0.00   0.0   684    14.71    703     0.0  0.00   0.0   0.034   0.000   17.6    62   10.2   17.1    0.00   349    1    100.0   15 
13/04/19  16.00   15.1   15.3   14.8    65    8.5   9.7   NNE   2.41  19.3   NNE   14.7   14.5   14.2   21.5   854.3  0.00   0.0   661    14.21    686     0.0  0.00   0.0   0.034   0.000   17.6    61   10.0   17.1    0.41   347    1    100.0   15 
13/04/19  16.15   15.2   15.6   15.0    65    8.6   9.7   NNE   2.41  20.9   NNE   14.9   14.6   14.3   21.6   854.3  0.00   0.0   617    13.27    649     0.0  0.00   0.0   0.033   0.000   17.8    61   10.2   17.4    0.00   345    1    100.0   15 
13/04/19  16.30   15.7   15.8   14.9    63    8.7   9.7   NNE   2.41  20.9   NNE   15.6   15.2   15.0   22.1   854.3  0.00   0.0   569    12.24    596     0.0  0.00   0.0   0.027   0.000   17.9    61   10.3   17.4    0.00   343    1    100.0   15 
13/04/19  16.45   15.5   15.7   15.3    63    8.5   9.7   NNE   2.41  19.3   NNE   15.3   14.9   14.7   21.5   854.3  0.00   0.0   515    11.07    580     0.0  0.00   0.0   0.030   0.000   18.0    61   10.4   17.6    0.00   350    1    100.0   15 
13/04/19  17.00   15.7   15.7   15.4    62    8.4   9.7   NNE   2.41  19.3   NNE   15.4   15.1   14.8   22.5   854.3  0.00   0.0   524    11.27    547     0.0  0.00   0.0   0.028   0.000   18.2    61   10.5   17.8    0.36   347    1    100.0   15 
13/04/19  17.15   15.5   15.7   15.3    64    8.7  11.3   NNE   2.82  19.3   NNE   15.1   14.9   14.5   21.9   854.3  0.00   0.0   479    10.30    499     0.0  0.00   0.0   0.030   0.000   18.3    61   10.6   17.9    0.00   338    1     98.8   15 
13/04/19  17.30   15.2   15.7   15.2    64    8.4  11.3   NNE   2.82  22.5   NNE   14.7   14.6   14.1   21.2   854.3  0.00   0.0   427     9.18    448     0.0  0.00   0.0   0.033   0.000   18.3    60   10.4   17.9    0.00   349    1    100.0   15 
13/04/19  17.45   15.6   15.6   15.1    64    8.8   8.0   NNE   2.01  19.3   NNE   15.6   15.0   15.0   21.6   854.3  0.00   0.0   374     8.04    403     0.0  0.00   0.0   0.029   0.000   18.3    60   10.4   17.9    0.00   346    1    100.0   15 
13/04/19  18.00   15.4   15.6   15.3    63    8.4   8.0     N   2.01  19.3     N   15.4   14.8   14.8   20.8   854.3  0.00   0.0   324     6.97    345     0.0  0.00   0.0   0.030   0.000   18.2    60   10.3   17.7    0.25   346    1    100.0   15 
13/04/19  18.15   15.4   15.5   15.2    64    8.7   8.0     N   2.01  19.3     N   15.4   14.9   14.9   19.6   854.3  0.00   0.0   253     5.44    299     0.0  0.00   0.0   0.030   0.000   18.0    60   10.1   17.5    0.00   344    1    100.0   15 
13/04/19  18.30   15.3   15.6   15.3    64    8.6   6.4     N   1.61  17.7     N   15.3   14.8   14.8   15.8   854.3  0.00   0.0   234     5.03    271     0.0  0.00   0.0   0.031   0.000   17.8    60   10.0   17.3    0.00   349    1    100.0   15 
13/04/19  18.45   15.2   15.4   15.2    65    8.7   4.8     N   1.21  14.5     N   15.2   14.7   14.7   14.9   854.3  0.00   0.0   166     3.57    195     0.0  0.00   0.0   0.032   0.000   17.6    60    9.7   17.1    0.00   349    1    100.0   15 
13/04/19  19.00   14.6   15.2   14.6    68    8.7   6.4   NNE   1.61  16.1   NNE   14.6   14.1   14.1   13.6   854.3  0.00   0.0   106     2.28    139     0.0  0.00   0.0   0.039   0.000   17.6    60    9.7   17.0    0.13   350    1    100.0   15 
13/04/19  19.15   14.3   14.7   14.3    69    8.7   1.6   NNE   0.40   8.0   NNE   14.3   13.9   13.9   12.8   800.1  0.00   0.0    59     1.27     84     0.0  0.00   0.0   0.042   0.000   17.4    60    9.6   16.9    0.00   352    1    100.0   15 
13/04/19  19.30   13.8   14.3   13.8    71    8.7   0.0   NNE   0.00   8.0   NNE   13.8   13.4   13.4   12.0   854.3  0.00   0.0    29     0.62     37     0.0  0.00   0.0   0.047   0.000   17.4    60    9.5   16.8    0.00   351    1    100.0   15 
13/04/19  19.45   13.5   13.8   13.5    74    9.0   1.6   NNE   0.40  11.3   NNE   13.5   13.2   13.2   11.6   854.3  0.00   0.0    15     0.32     21     0.0  0.00   0.0   0.050   0.000   17.3    61    9.7   16.7    0.00   350    1    100.0   15 
13/04/19  20.00   13.3   13.5   13.2    75    8.9   3.2   NNE   0.80   9.7   NNE   13.3   12.9   12.9   11.2   550.7  0.00   0.0     4     0.09      9     0.0  0.00   0.0   0.053   0.000   17.2    61    9.6   16.7    0.03   349    1    100.0   15 
13/04/19  20.15   13.3   13.3   13.2    76    9.1   3.2   NNE   0.80  16.1   NNE   13.3   13.0   13.0   11.3   550.7  0.00   0.0     0     0.00      0     0.0  0.00   0.0   0.053   0.000   17.1    61    9.5   16.6    0.00   350    1    100.0   15 
13/04/19  20.30   13.1   13.3   13.1    77    9.2   1.6   NNE   0.40  11.3   NNE   13.1   12.8   12.8   11.1  1089.0  0.00   0.0     0     0.00      0     0.0  0.00   0.0   0.054   0.000   17.0    62    9.7   16.5    0.00   351    1    100.0   15 
13/04/19  20.45   13.1   13.2   13.0    77    9.1   3.2   NNE   0.80   8.0   NNE   13.1   12.8   12.8   11.1  1089.0  0.00   0.0     0     0.00      0     0.0  0.00   0.0   0.055   0.000   17.0    62    9.7   16.5    0.00   348    1    100.0   15 
13/04/19  21.00   12.9   13.1   12.8    78    9.1   1.6   NNE   0.40   6.4   NNE   12.9   12.7   12.7   10.9  1089.0  0.00   0.0     0     0.00      0     0.0  0.00   0.0   0.057   0.000   16.9    62    9.6   16.4    0.00   349    1    100.0   15 
13/04/19  21.15   12.8   12.9   12.8    78    9.0   0.0   NNE   0.00   6.4   NNE   12.8   12.6   12.6   10.8  1089.0  0.00   0.0     0     0.00      0     0.0  0.00   0.0   0.058   0.000   16.8    62    9.5   16.3    0.00   351    1    100.0   15 
13/04/19  21.30   12.4   12.8   12.4    80    9.1   3.2   NNE   0.80   8.0   NNE   12.4   12.3   12.3   10.6  1089.0  0.00   0.0     0     0.00      0     0.0  0.00   0.0   0.061   0.000   16.8    62    9.5   16.3    0.00   349    1    100.0   15 
13/04/19  21.45   12.2   12.4   12.2    81    9.1   1.6   NNE   0.40   6.4   NNE   12.2   12.1   12.1   10.3  1089.0  0.00   0.0     0     0.00      0     0.0  0.00   0.0   0.064   0.000   16.8    62    9.5   16.2    0.00   351    1    100.0   15 
13/04/19  22.00   11.9   12.2   11.9    81    8.8   0.0   NNE   0.00   4.8   NNE   11.9   11.8   11.8   10.0  1089.0  0.00   0.0     0     0.00      0     0.0  0.00   0.0   0.067   0.000   16.8    63    9.7   16.3    0.03   349    1    100.0   15 
13/04/19  22.15   11.7   11.9   11.7    82    8.7   0.0   NNE   0.00   6.4   NNE   11.7   11.6   11.6    9.8  1089.0  0.00   0.0     0     0.00      0     0.0  0.00   0.0   0.069   0.000   16.7    63    9.6   16.2    0.00   351    1    100.0   15 
13/04/19  22.30   11.7   11.7   11.5    83    8.9   1.6   NNE   0.40   6.4   NNE   11.7   11.6   11.6    9.8  1089.0  0.00   0.0     0     0.00      0     0.0  0.00   0.0   0.069   0.000   16.7    63    9.6   16.2    0.00   351    1    100.0   15 
13/04/19  22.45   11.8   11.8   11.7    82    8.9   3.2   NNE   0.80   8.0   NNE   11.8   11.7   11.7    9.9  1089.0  0.00   0.0     0     0.00      0     0.0  0.00   0.0   0.068   0.000   16.6    63    9.5   16.1    0.00   350    1    100.0   15 
13/04/19  23.00   11.8   11.9   11.8    82    8.9   4.8   NNE   1.21   9.7   NNE   11.8   11.7   11.7    9.9  1089.0  0.00   0.0     0     0.00      0     0.0  0.00   0.0   0.068   0.000   16.6    63    9.5   16.1    0.00   350    1    100.0   15 
13/04/19  23.15   11.9   11.9   11.8    81    8.7   3.2   NNE   0.80   6.4   NNE   11.9   11.7   11.7    9.9  1089.0  0.00   0.0     0     0.00      0     0.0  0.00   0.0   0.067   0.000   16.6    63    9.5   16.1    0.03   351    1    100.0   15 
13/04/19  23.30   11.8   11.9   11.8    82    8.8   3.2   NNE   0.80   6.4   NNE   11.8   11.7   11.7    9.9  1089.0  0.00   0.0     0     0.00      0     0.0  0.00   0.0   0.068   0.000   16.5    63    9.4   16.0    0.00   350    1    100.0   15 
13/04/19  23.45   11.8   11.9   11.7    82    8.9   3.2   NNE   0.80   8.0   NNE   11.8   11.7   11.7    9.9  1089.0  0.00   0.0     0     0.00      0     0.0  0.00   0.0   0.068   0.000   16.5    63    9.4   16.0    0.00   351    1    100.0   15 
14/04/19  00.00   11.6   11.8   11.6    83    8.8   1.6   NNE   0.40   6.4   NNE   11.6   11.5   11.5    9.7  1089.0  0.00   0.0     0     0.00      0     0.0  0.00   0.0   0.070   0.000   16.5    63    9.4   16.0    0.00   351    1    100.0   15 
14/04/19   0.15   11.5   11.6   11.5    84    8.9   1.6   NNE   0.40   6.4   NNE   11.5   11.4   11.4    9.7  1089.0  0.00   0.0     0     0.00      0     0.0  0.00   0.0   0.071   0.000   16.4    63    9.3   15.9    0.03   348    1    100.0   15 
14/04/19   0.30   11.4   11.5   11.4    85    9.0   1.6   NNE   0.40   6.4   NNE   11.4   11.4   11.4    9.7  1089.0  0.00   0.0     0     0.00      0     0.0  0.00   0.0   0.072   0.000   16.4    63    9.3   15.9    0.00   351    1    100.0   15 
14/04/19   0.45   11.2   11.4   11.2    86    8.9   0.0   NNE   0.00   1.6   NNE   11.2   11.2   11.2    9.4  1089.0  0.00   0.0     0     0.00      0     0.0  0.00   0.0   0.075   0.000   16.4    64    9.6   15.9    0.00   350    1    100.0   15 
14/04/19   1.00   10.7   11.2   10.7    86    8.4   0.0   ---   0.00   0.0   ---   10.7   10.7   10.7    8.9  1089.0  0.00   0.0     0     0.00      0     0.0  0.00   0.0   0.080   0.000   16.4    64    9.6   15.9    0.00   350    1    100.0   15 
14/04/19   1.15    9.8   10.6    9.8    86    7.6   0.0   NNE   0.00   1.6   NNE    9.8    9.9    9.9    8.1  1089.0  0.00   0.0     0     0.00      0     0.0  0.00   0.0   0.089   0.000   16.3    64    9.5   15.9    0.00   349    1    100.0   15 
14/04/19   1.30    9.6    9.9    9.6    84    7.0   0.0   NNE   0.00   1.6   NNE    9.6    9.7    9.7    7.8  1089.0  0.00   0.0     0     0.00      0     0.0  0.00   0.0   0.091   0.000   16.2    63    9.2   15.7    0.00   350    1    100.0   15 
14/04/19   1.45    9.4    9.6    9.3    85    7.0   0.0   ---   0.00   0.0   ---    9.4    9.5    9.5    7.7  1089.0  0.00   0.0     0     0.00      0     0.0  0.00   0.0   0.093   0.000   16.2    62    8.9   15.7    0.00   350    1    100.0   15 
14/04/19   2.00    9.3    9.6    9.2    86    7.1   0.0   ---   0.00   0.0   ---    9.3    9.4    9.4    7.6  1089.0  0.00   0.0     0     0.00      0     0.0  0.00   0.0   0.094   0.000   16.2    62    8.9   15.6    0.00   351    1    100.0   15 
14/04/19   2.15    9.0    9.3    8.9    87    7.0   0.0   ---   0.00   0.0   ---    9.0    9.1    9.1    7.2  1089.0  0.00   0.0     0     0.00      0     0.0  0.00   0.0   0.097   0.000   16.2    62    8.9   15.6    0.00   352    1    100.0   15 
14/04/19   2.30    8.3    9.2    8.3    88    6.4   0.0   NNE   0.00   1.6   NNE    8.3    8.3    8.3    6.4  1089.0  0.00   0.0     0     0.00      0     0.0  0.00   0.0   0.105   0.000   16.1    62    8.8   15.5    0.00   349    1    100.0   15 
14/04/19   2.45    8.2    8.3    8.2    88    6.3   0.0   NNE   0.00   1.6   NNE    8.2    8.2    8.2    6.3  1089.0  0.00   0.0     0     0.00      0     0.0  0.00   0.0   0.106   0.000   16.1    62    8.8   15.5    0.00   348    1    100.0   15 
14/04/19   3.00    8.7    8.7    8.1    88    6.8   0.0   ---   0.00   0.0   ---    8.7    8.7    8.7    6.9  1089.0  0.00   0.0     0     0.00      0     0.0  0.00   0.0   0.101   0.000   16.0    62    8.7   15.4    0.00   350    1    100.0   15 
14/04/19   3.15    8.2    8.7    8.2    89    6.5   0.0   ---   0.00   0.0   ---    8.2    8.3    8.3    6.4  1089.0  0.00   0.0     0     0.00      0     0.0  0.00   0.0   0.105   0.000   16.0    62    8.7   15.4    0.00   352    1    100.0   15 
14/04/19   3.30    8.2    8.2    8.1    89    6.5   0.0   ---   0.00   0.0   ---    8.2    8.3    8.3    6.4  1089.0  0.00   0.0     0     0.00      0     0.0  0.00   0.0   0.105   0.000   16.0    62    8.7   15.4    0.00   351    1    100.0   15 
14/04/19   3.45    8.2    8.3    8.2    89    6.5   0.0   ---   0.00   0.0   ---    8.2    8.3    8.3    6.4  1089.0  0.00   0.0     0     0.00      0     0.0  0.00   0.0   0.105   0.000   15.9    62    8.6   15.3    0.00   351    1    100.0   15 
14/04/19   4.00    8.6    8.6    8.2    89    6.9   0.0   ---   0.00   0.0   ---    8.6    8.7    8.7    6.9  1089.0  0.00   0.0     0     0.00      0     0.0  0.00   0.0   0.101   0.000   15.9    62    8.6   15.3    0.00   351    1    100.0   15 
14/04/19   4.15    8.6    8.7    8.6    90    7.1   0.0   ---   0.00   0.0   ---    8.6    8.7    8.7    6.9   590.0  0.00   0.0     0     0.00      0     0.0  0.00   0.0   0.101   0.000   15.9    62    8.6   15.3    0.00   350    1    100.0   15 
14/04/19   4.30    9.4    9.4    8.6    90    7.8   0.0   NNE   0.00   1.6   NNE    9.4    9.6    9.6    7.8   590.0  0.00   0.0     0     0.00      0     0.0  0.00   0.0   0.093   0.000   15.9    62    8.6   15.3    0.00   351    1    100.0   15 
14/04/19   4.45   10.2   10.2    9.4    89    8.5   0.0   NNE   0.00   1.6   NNE   10.2   10.3   10.3    8.6   590.0  0.00   0.0     0     0.00      0     0.0  0.00   0.0   0.084   0.000   15.9    63    8.9   15.3    0.00   351    1    100.0   15 
14/04/19   5.00   11.0   11.1   10.2    88    9.1   0.0   NNE   0.00   4.8   NNE   11.0   11.1   11.1    9.3   590.0  0.00   0.0     0     0.00      0     0.0  0.00   0.0   0.076   0.000   15.9    63    8.9   15.3    0.00   349    1    100.0   15 
14/04/19   5.15   11.1   11.1   10.8    87    9.0   0.0   NNE   0.00   1.6   NNE   11.1   11.2   11.2    9.4   590.0  0.00   0.0     0     0.00      0     0.0  0.00   0.0   0.075   0.000   15.9    63    8.9   15.3    0.00   350    1    100.0   15 
14/04/19   5.30   11.1   11.2   11.1    87    9.0   0.0   NNE   0.00   3.2   NNE   11.1   11.1   11.1    9.4   590.0  0.00   0.0     0     0.00      0     0.0  0.00   0.0   0.076   0.000   15.9    63    8.9   15.3    0.00   351    1    100.0   15 
14/04/19   5.45   10.9   11.1   10.8    87    8.9   0.0   ---   0.00   0.0   ---   10.9   11.0   11.0    9.2   590.0  0.00   0.0     0     0.00      0     0.0  0.00   0.0   0.077   0.000   15.9    64    9.1   15.4    0.00   351    1    100.0   15 
14/04/19   6.00   11.1   11.1   10.8    87    9.0   0.0   NNE   0.00   1.6   NNE   11.1   11.2   11.2    9.4   592.7  0.00   0.0     0     0.00      0     0.0  0.00   0.0   0.075   0.000   15.9    64    9.1   15.4    0.00   351    1    100.0   15 
14/04/19   6.15   11.3   11.4   11.2    86    9.1   0.0   NNE   0.00   1.6   NNE   11.3   11.3   11.3    9.6   592.7  0.00   0.0     0     0.00      0     0.0  0.00   0.0   0.073   0.000   15.9    64    9.1   15.4    0.00   350    1    100.0   15 
14/04/19   6.30   11.7   11.7   11.2    87    9.6   0.0   NNE   0.00   4.8   NNE   11.7   11.7   11.7   10.0   592.7  0.00   0.0     0     0.00      0     0.0  0.00   0.0   0.069   0.000   15.9    64    9.1   15.4    0.00   351    1    100.0   15 
14/04/19   6.45   12.9   12.9   11.7    87   10.8   1.6   NNE   0.40  14.5     N   12.9   12.9   12.9   11.2   592.7  0.00   0.0     1     0.02      5     0.0  0.00   0.0   0.057   0.000   15.9    64    9.1   15.4    0.00   349    1    100.0   15 
14/04/19   7.00   12.8   12.9   12.8    86   10.5   1.6   NNE   0.40   8.0   NNE   12.8   12.7   12.7   11.1   592.7  0.00   0.0     9     0.19     12     0.0  0.00   0.0   0.058   0.000   15.9    65    9.3   15.4    0.00   351    1    100.0   15 
14/04/19   7.15   12.9   12.9   12.8    86   10.6   1.6   NNE   0.40   8.0   NNE   12.9   12.8   12.8   11.5   592.7  0.00   0.0    30     0.65     44     0.0  0.00   0.0   0.057   0.000   15.9    65    9.3   15.4    0.00   349    1    100.0   15 
14/04/19   7.30   13.1   13.1   12.9    85   10.6   1.6   ENE   0.40   8.0   ENE   13.1   13.0   13.0   11.8   592.7  0.00   0.0    38     0.82     46     0.0  0.00   0.0   0.055   0.000   15.9    66    9.5   15.4    0.00   350    1    100.0   15 
14/04/19   7.45   13.4   13.4   13.1    85   11.0   1.6   ENE   0.40   8.0   ENE   13.4   13.4   13.4   12.4   592.7  0.00   0.0    59     1.27     84     0.0  0.00   0.0   0.051   0.000   16.0    66    9.6   15.6    0.00   352    1    100.0   15 
14/04/19   8.00   13.6   13.6   13.4    84   11.0   3.2   ENE   0.80   9.7   ENE   13.6   13.6   13.6   13.1   592.7  0.00   0.0    98     2.11    167     0.0  0.00   0.0   0.049   0.000   16.0    66    9.6   15.6    0.03   351    1    100.0   15 
14/04/19   8.15   14.2   14.2   13.6    82   11.1   3.2     E   0.80  16.1     E   14.2   14.1   14.1   17.1   592.7  0.00   0.0   187     4.02    322     0.0  0.00   0.0   0.043   0.000   16.1    66    9.7   15.6    0.00   351    1    100.0   15 
14/04/19   8.30   13.9   14.3   13.9    82   10.9   3.2   ESE   0.80  14.5     E   13.9   13.8   13.8   16.1   592.7  0.00   0.0   148     3.18    346     0.0  0.00   0.0   0.046   0.000   16.1    66    9.7   15.6    0.00   351    1    100.0   15 
14/04/19   8.45   13.9   13.9   13.8    82   10.9   3.2   ESE   0.80  17.7   ESE   13.9   13.8   13.8   15.1   592.7  0.00   0.0    98     2.11    327     0.0  0.00   0.0   0.046   0.000   16.1    66    9.7   15.6    0.00   352    1    100.0   15 
14/04/19   9.00   14.8   14.8   13.9    81   11.5   3.2   ESE   0.80  16.1   ESE   14.8   14.7   14.7   22.3   592.7  0.00   0.0   453     9.74    513     0.0  0.00   0.0   0.037   0.000   16.2    66    9.9   15.8    0.13   350    1    100.0   15 
14/04/19   9.15   14.5   14.8   14.4    80   11.1   6.4    SE   1.61  17.7    SE   14.5   14.4   14.4   19.6   592.7  0.00   0.0   362     7.78    466     0.0  0.00   0.0   0.040   0.000   16.3    66   10.0   15.9    0.00   350    1    100.0   15 
14/04/19   9.30   14.4   14.6   14.4    82   11.4   6.4    SE   1.61  19.3    SE   14.4   14.3   14.3   17.8   592.7  0.00   0.0   230     4.95    606     0.0  0.00   0.0   0.041   0.000   16.3    66   10.0   15.9    0.00   351    1    100.0   15 
14/04/19   9.45   14.7   14.8   14.4    81   11.4   6.4    SE   1.61  19.3   SSE   14.7   14.6   14.6   19.8   592.7  0.00   0.0   394     8.47    666     0.0  0.00   0.0   0.038   0.000   16.4    66   10.0   16.0    0.00   351    1    100.0   15 
14/04/19  10.00   14.8   14.8   14.4    83   11.9   6.4   SSE   1.61  17.7   SSE   14.8   14.7   14.7   18.6   592.7  0.00   0.0   282     6.06    789     0.0  0.00   0.0   0.037   0.000   16.4    66   10.0   16.0    0.18   350    1    100.0   15 
14/04/19  10.15   14.4   14.8   14.4    84   11.8   8.0    SE   2.01  20.9    SE   14.2   14.4   14.2   17.7   592.7  0.00   0.0   265     5.70    292     0.0  0.00   0.0   0.041   0.000   16.5    66   10.1   16.1    0.00   350    1    100.0   15 
14/04/19  10.30   14.8   14.8   14.4    83   11.9   9.7    SE   2.41  24.1   ESE   14.4   14.7   14.3   22.8   592.7  0.00   0.0   741    15.93    918     0.0  0.00   0.0   0.037   0.000   16.6    66   10.2   16.2    0.00   345    1    100.0   15 
14/04/19  10.45   14.8   15.1   14.4    82   11.8   9.7    SE   2.41  22.5   ESE   14.4   14.8   14.4   19.9   592.7  0.00   0.0   481    10.34   1005     0.0  0.00   0.0   0.036   0.000   16.6    66   10.2   16.2    0.00   345    1    100.0   15 
14/04/19  11.00   15.2   15.2   14.8    82   12.1  11.3    SE   2.82  22.5     S   14.7   15.1   14.6   22.7   592.7  0.00   0.0   814    17.50    935     0.0  0.00   0.0   0.033   0.000   16.8    66   10.4   16.4    0.33   347    1    100.0   15 
14/04/19  11.15   15.2   15.2   14.9    81   12.0  12.9    SE   3.22  24.1    SE   14.3   15.2   14.3   22.6   592.7  0.00   0.0   900    19.35    990     0.0  0.00   0.0   0.032   0.000   16.8    66   10.4   16.5    0.00   340    1     99.4   15 
14/04/19  11.30   15.6   15.6   15.2    79   12.0   8.0    SE   2.01  19.3   SSE   15.6   15.5   15.5   24.2   592.7  0.00   0.0   919    19.76    981     0.0  0.00   0.0   0.028   0.000   16.9    66   10.5   16.6    0.00   346    1    100.0   15 
14/04/19  11.45   15.4   15.7   15.2    80   12.0   8.0    SE   2.01  16.1   SSE   15.3   15.3   15.3   22.9   685.1  0.00   0.0   851    18.30    958     0.0  0.00   0.0   0.031   0.000   17.0    66   10.6   16.7    0.00   348    1    100.0   15 
14/04/19  12.00   15.9   15.9   15.4    76   11.7   6.4   SSE   1.61  17.7   ESE   15.9   15.7   15.7   23.1   685.1  0.00   0.0   858    18.45    872     0.0  0.00   0.0   0.025   0.000   17.0    66   10.6   16.7    0.53   350    1    100.0   15 
14/04/19  12.15   16.0   16.2   15.9    74   11.4   4.8    SE   1.21  17.7    SE   16.0   15.8   15.8   23.0   685.1  0.00   0.0   863    18.56    870     0.2  0.02   0.5   0.024   0.000   17.1    65   10.5   16.8    0.00   351    1    100.0   15 
14/04/19  12.30   16.1   16.1   15.8    74   11.4   6.4    SE   1.61  17.7    SE   16.1   15.8   15.8   22.9   552.2  0.00   0.0   863    18.56    874     0.6  0.06   0.7   0.024   0.000   17.2    65   10.6   16.9    0.00   350    1    100.0   15 
14/04/19  12.45   16.0   16.1   15.8    74   11.4   6.4   SSE   1.61  17.7     S   16.0   15.8   15.8   22.9   552.2  0.00   0.0   881    18.94    905     0.7  0.07   0.8   0.024   0.000   17.3    65   10.6   16.9    0.00   349    1    100.0   15 
14/04/19  13.00   16.9   17.0   16.0    74   12.2   3.2   SSE   0.80  14.5    SE   16.9   16.8   16.8   24.4   552.2  0.00   0.0   931    20.02    991     0.9  0.10   1.1   0.015   0.000   17.4    65   10.7   17.1    0.48   350    1    100.0   15 
14/04/19  13.15   16.1   17.4   16.1    75   11.7   4.8   SSE   1.21  14.5   ESE   16.1   15.9   15.9   24.7   552.2  0.00   0.0  1044    22.45   1102     1.0  0.11   1.4   0.023   0.000   17.4    65   10.8   17.1    0.00   349    1    100.0   15 
14/04/19  13.30   13.8   16.6   13.8    74    9.2  11.3    SE   2.82  49.9    NW   13.0   13.4   12.7   18.3   854.3  0.00   0.0   758    16.30   1118     0.5  0.05   1.3   0.047   0.000   17.4    65   10.8   17.1    0.00   348    1    100.0   15 
14/04/19  13.45   13.6   13.8   12.9    73    8.8  22.5   NNW   5.63  45.1    NW   10.4   13.2   10.1   14.6   878.2  0.00   0.0   774    16.64   1009     0.6  0.06   0.9   0.050   0.000   17.4    65   10.8   17.1    0.00   346    1    100.0   15 
14/04/19  14.00   12.4   13.8   12.3    79    8.8  22.5   NNE   5.63  45.1   NNE    9.1   12.2    8.9   13.8   800.1  0.00   0.0   796    17.12    960     0.4  0.04   0.7   0.062   0.000   17.4    64   10.6   17.1    0.48   345    1    100.0   15 
14/04/19  14.15   13.1   13.1   12.3    77    9.1  19.3   NNE   4.83  37.0   NNE   10.3   12.8   10.1   16.1   854.3  0.00   0.0   874    18.79    930     0.6  0.06   0.8   0.055   0.000   17.4    64   10.6   17.1    0.00   345    1    100.0   15 
14/04/19  14.30   13.5   13.5   13.0    76    9.4  16.1     N   4.02  40.2    NE   11.5   13.2   11.2   17.8   854.3  0.00   0.0   870    18.71    898     0.1  0.01   0.5   0.050   0.000   17.4    63   10.3   17.1    0.00   349    1    100.0   15 
14/04/19  14.45   13.4   13.7   13.0    75    9.1  16.1   NNW   4.02  37.0   WNW   11.4   13.1   11.1   17.7   854.3  0.00   0.0   852    18.32    900     0.0  0.00   0.0   0.051   0.000   17.6    63   10.4   17.2    0.00   349    1    100.0   15 
14/04/19  15.00   13.6   13.8   13.2    72    8.6  17.7   NNE   4.43  33.8   NNE   11.2   13.2   10.8   16.8   854.3  0.00   0.0   784    16.86    805     0.0  0.00   0.0   0.050   0.000   17.6    63   10.5   17.2    0.48   346    1    100.0   15 
14/04/19  15.15   13.8   13.9   13.5    72    8.9  14.5     N   3.62  30.6   NNE   12.2   13.4   11.8   18.3   854.3  0.00   0.0   758    16.30    779     0.0  0.00   0.0   0.047   0.000   17.7    63   10.6   17.3    0.00   345    1    100.0   15 
14/04/19  15.30   13.8   13.8   13.4    71    8.6  14.5   NNE   3.62  30.6   NNE   12.2   13.4   11.8   18.3   854.3  0.00   0.0   728    15.65    747     0.0  0.00   0.0   0.047   0.000   17.8    62   10.4   17.4    0.00   341    1     99.7   15 
14/04/19  15.45   13.7   13.8   13.4    73    9.0  12.9   NNE   3.22  27.4   NNE   12.5   13.4   12.2   18.9   854.3  0.00   0.0   692    14.88    707     0.0  0.00   0.0   0.048   0.000   17.9    62   10.5   17.5    0.00   347    1    100.0   15 
14/04/19  16.00   13.6   13.9   13.0    71    8.4  12.9   NNE   3.22  27.4     N   12.4   13.2   12.0   18.8   854.3  0.00   0.0   661    14.21    679     0.0  0.00   0.0   0.049   0.000   18.0    61   10.4   17.6    0.41   343    1    100.0   15 
14/04/19  16.15   13.8   13.9   13.3    70    8.5   9.7   NNE   2.41  22.5   NNW   13.3   13.4   12.8   20.1   854.3  0.00   0.0   622    13.37    642     0.0  0.00   0.0   0.047   0.000   18.1    61   10.5   17.7    0.00   350    1    100.0   15 
14/04/19  16.30   14.3   14.3   13.8    70    8.9   8.0    NE   2.01  24.1    NE   14.0   13.8   13.6   20.8   854.3  0.00   0.0   581    12.49    601     0.0  0.00   0.0   0.042   0.000   18.2    61   10.5   17.8    0.00   345    1    100.0   15 
14/04/19  16.45   14.3   14.6   14.1    68    8.5   8.0    NE   2.01  29.0   NNE   14.1   13.8   13.6   20.8   854.3  0.00   0.0   541    11.63    564     0.0  0.00   0.0   0.042   0.000   18.3    60   10.4   17.8    0.00   341    1     99.7   15 
14/04/19  17.00   14.2   14.3   13.9    68    8.4  12.9   NNW   3.22  29.0     N   13.1   13.7   12.6   19.3   854.3  0.00   0.0   499    10.73    515     0.0  0.00   0.0   0.043   0.000   18.3    60   10.4   17.9    0.33   341    1     99.7   15 
14/04/19  17.15   14.2   14.4   14.1    69    8.6  12.9     N   3.22  27.4   NNE   13.1   13.8   12.7   19.4   854.3  0.00   0.0   464     9.98    480     0.0  0.00   0.0   0.043   0.000   18.4    60   10.5   18.0    0.00   342    1    100.0   15 
14/04/19  17.30   14.0   14.3   13.8    69    8.4  16.1     N   4.02  29.0   NNW   12.1   13.6   11.6   17.9   854.3  0.00   0.0   430     9.25    448     0.0  0.00   0.0   0.045   0.000   18.6    60   10.6   18.1    0.00   349    1    100.0   15 
14/04/19  17.45   13.2   14.1   13.2    70    7.9  12.9   NNE   3.22  30.6     N   11.9   12.8   11.5   14.3   854.3  0.00   0.0   193     4.15    399     0.0  0.00   0.0   0.053   0.000   18.4    59   10.3   17.9    0.00   346    1    100.0   15 
14/04/19  18.00   13.1   13.3   13.1    69    7.5  16.1   NNW   4.02  35.4    NW   10.9   12.6   10.5   11.8   854.3  0.00   0.0   112     2.41    155     0.0  0.00   0.0   0.055   0.000   18.2    59   10.0   17.7    0.20   345    1    100.0   15 
14/04/19  18.15   12.9   13.1   12.8    72    8.0  17.7   NNW   4.43  33.8   NNW   10.4   12.5   10.1   10.9   854.3  0.00   0.0    95     2.04    160     0.0  0.00   0.0   0.057   0.000   18.0    59    9.9   17.5    0.00   344    1    100.0   15 
14/04/19  18.30   13.1   13.2   12.9    73    8.4  20.9   NNW   5.23  37.0     N   10.2   12.7    9.8   10.7   854.3  0.00   0.0   227     4.88    248     0.0  0.00   0.0   0.054   0.000   17.8    59    9.7   17.3    0.00   343    1    100.0   15 
14/04/19  18.45   12.9   13.1   12.8    75    8.6  19.3   NNW   4.83  30.6    NW   10.1   12.6    9.8   10.1   854.3  0.00   0.0   161     3.46    200     0.0  0.00   0.0   0.057   0.000   17.6    59    9.5   17.1    0.00   345    1    100.0   15 
14/04/19  19.00   12.7   12.9   12.7    76    8.6  17.7   NNW   4.43  35.4   NNW   10.3   12.4   10.0    9.8   854.3  0.00   0.0   118     2.54    148     0.0  0.00   0.0   0.058   0.000   17.4    60    9.6   16.9    0.13   342    1    100.0   15 
14/04/19  19.15   12.3   12.7   12.3    77    8.4  16.1   NNW   4.02  35.4    NW   10.1   12.1    9.9    9.1   800.1  0.00   0.0    58     1.25     91     0.0  0.00   0.0   0.062   0.000   17.4    60    9.5   16.8    0.00   346    1    100.0   15 
14/04/19  19.30   12.2   12.3   12.2    77    8.3   8.0   NNW   2.01  24.1    NW   11.6   11.9   11.3    9.9   800.1  0.00   0.0    21     0.45     26     0.0  0.00   0.0   0.064   0.000   17.3    60    9.4   16.7    0.00   345    1    100.0   15 
14/04/19  19.45   12.2   12.3   12.2    76    8.1  14.5   NNW   3.62  30.6     N   10.3   11.9   10.1    8.6   552.4  0.00   0.0    11     0.24     14     0.0  0.00   0.0   0.064   0.000   17.2    60    9.4   16.6    0.00   334    1     97.7   15 
14/04/19  20.00   12.2   12.2   12.2    78    8.4   6.4   NNW   1.61  29.0   NNW   11.9   11.9   11.7   10.1   552.4  0.00   0.0     3     0.06      7     0.0  0.00   0.0   0.064   0.000   17.1    60    9.3   16.5    0.05   347    1    100.0   15 
14/04/19  20.15   12.4   12.4   12.1    78    8.7   8.0   NNW   2.01  25.7    NW   11.8   12.2   11.6    9.9   552.4  0.00   0.0     0     0.00      0     0.0  0.00   0.0   0.062   0.000   17.0    60    9.2   16.4    0.00   346    1    100.0   15 
14/04/19  20.30   12.4   12.6   12.4    78    8.7  11.3   NNW   2.82  22.5   NNW   11.3   12.2   11.1    9.4   552.4  0.00   0.0     0     0.00      0     0.0  0.00   0.0   0.062   0.000   17.0    60    9.2   16.4    0.00   345    1    100.0   15 
14/04/19  20.45   12.4   12.4   12.3    77    8.5  11.3   NNW   2.82  22.5   NNW   11.4   12.2   11.2    9.5   552.4  0.00   0.0     0     0.00      0     0.0  0.00   0.0   0.061   0.000   16.9    61    9.4   16.4    0.00   344    1    100.0   15 
14/04/19  21.00   12.7   12.7   12.4    77    8.7   8.0   NNW   2.01  22.5   NNW   12.2   12.4   11.9   10.3   552.4  0.00   0.0     0     0.00      0     0.0  0.00   0.0   0.059   0.000   16.9    61    9.4   16.4    0.03   343    1    100.0   15 
14/04/19  21.15   12.7   12.7   12.6    77    8.7   6.4   NNW   1.61  22.5   NNW   12.4   12.4   12.2   10.6   552.4  0.00   0.0     0     0.00      0     0.0  0.00   0.0   0.059   0.000   16.9    61    9.4   16.4    0.00   337    1     98.5   15 
14/04/19  21.30   12.5   12.7   12.5    76    8.4   6.4     N   1.61  22.5   WNW   12.3   12.2   12.0   10.3   552.4  0.00   0.0     0     0.00      0     0.0  0.00   0.0   0.061   0.000   16.8    61    9.3   16.2    0.00   342    1    100.0   15 
14/04/19  21.45   12.4   12.5   12.4    76    8.3   9.7   NNW   2.41  25.7   NNW   11.6   12.2   11.3    9.7   552.4  0.00   0.0     0     0.00      0     0.0  0.00   0.0   0.061   0.000   16.8    61    9.3   16.2    0.00   341    1     99.7   15 
14/04/19  22.00   12.3   12.4   12.3    77    8.4  11.3    NW   2.82  25.7    NW   11.2   12.1   11.0    9.3   552.4  0.00   0.0     0     0.00      0     0.0  0.00   0.0   0.062   0.000   16.8    61    9.2   16.2    0.03   342    1    100.0   15 
14/04/19  22.15   12.6   12.6   12.3    79    9.0   8.0   NNW   2.01  24.1   NNW   12.0   12.4   11.8   10.2   552.4  0.00   0.0     0     0.00      0     0.0  0.00   0.0   0.060   0.000   16.8    61    9.2   16.2    0.00   342    1    100.0   15 
14/04/19  22.30   12.3   12.6   12.3    80    8.9   0.0   NNW   0.00   8.0   NNW   12.3   12.1   12.1   10.4   552.4  0.00   0.0     0     0.00      0     0.0  0.00   0.0   0.063   0.000   16.8    61    9.2   16.2    0.00   346    1    100.0   15 
14/04/19  22.45   11.4   12.3   11.4    80    8.1   0.0   NNW   0.00   4.8   NNW   11.4   11.3   11.3    9.6   552.4  0.00   0.0     0     0.00      0     0.0  0.00   0.0   0.072   0.000   16.7    62    9.3   16.1    0.00   351    1    100.0   15 
14/04/19  23.00   12.3   12.3   11.4    76    8.2   3.2   NNE   0.80  14.5   NNE   12.3   12.0   12.0   10.3   552.4  0.00   0.0     0     0.00      0     0.0  0.00   0.0   0.063   0.000   16.7    62    9.3   16.1    0.00   342    1    100.0   15 
14/04/19  23.15   11.8   12.3   11.8    77    7.9   1.6    NE   0.40   8.0    NE   11.8   11.6   11.6    9.9   552.4  0.00   0.0     0     0.00      0     0.0  0.00   0.0   0.068   0.000   16.7    61    9.1   16.1    0.03   351    1    100.0   15 
14/04/19  23.30   11.5   11.8   11.4    78    7.8   1.6    NE   0.40   8.0    NE   11.5   11.3   11.3    9.7   552.4  0.00   0.0     0     0.00      0     0.0  0.00   0.0   0.071   0.000   16.6    61    9.1   16.0    0.00   348    1    100.0   15 
14/04/19  23.45   11.8   11.9   11.5    79    8.3   4.8   NNE   1.21  17.7     N   11.8   11.6   11.6    9.9   552.4  0.00   0.0     0     0.00      0     0.0  0.00   0.0   0.068   0.000   16.6    61    9.1   16.0    0.00   352    1    100.0   15 
15/04/19  00.00   11.9   11.9   11.8    79    8.4   6.4     N   1.61  19.3   NNW   11.6   11.8   11.4    9.8   588.5  0.00   0.0     0     0.00      0     0.0  0.00   0.0   0.067   0.000   16.6    62    9.3   16.1    0.03   339    1     99.1   15 
15/04/19   0.15   12.1   12.1   11.9    78    8.4   9.7   NNW   2.41  25.7     N   11.2   11.9   11.0    9.3   588.5  0.00   0.0     0     0.00      0     0.0  0.00   0.0   0.065   0.000   16.6    62    9.3   16.1    0.00   335    1     98.0   15 
15/04/19   0.30   12.3   12.3   12.1    77    8.4   6.4     N   1.61  25.7     N   12.1   12.1   11.8   10.2   588.5  0.00   0.0     0     0.00      0     0.0  0.00   0.0   0.062   0.000   16.6    62    9.3   16.1    0.00   341    1     99.7   15 
15/04/19   0.45   12.4   12.4   12.3    77    8.5   4.8   NNE   1.21  19.3   NNE   12.4   12.2   12.2   10.6   588.5  0.00   0.0     0     0.00      0     0.0  0.00   0.0   0.061   0.000   16.6    62    9.3   16.1    0.00   349    1    100.0   15 
15/04/19   1.00   12.4   12.5   12.4    76    8.3   9.7     N   2.41  20.9   NNW   11.6   12.2   11.3    9.7   588.5  0.00   0.0     0     0.00      0     0.0  0.00   0.0   0.061   0.000   16.5    62    9.2   15.9    0.03   349    1    100.0   15 
15/04/19   1.15   12.2   12.4   12.2    77    8.3   9.7   NNW   2.41  24.1   NNE   11.3   12.0   11.1    9.4   588.5  0.00   0.0     0     0.00      0     0.0  0.00   0.0   0.064   0.000   16.5    62    9.2   15.9    0.00   344    1    100.0   15 
15/04/19   1.30   12.0   12.2   12.0    78    8.3   8.0     N   2.01  20.9   NNE   11.3   11.8   11.1    9.4   588.5  0.00   0.0     0     0.00      0     0.0  0.00   0.0   0.066   0.000   16.5    62    9.2   15.9    0.00   349    1    100.0   15 
15/04/19   1.45   12.0   12.1   11.9    77    8.1   6.4   NNE   1.61  22.5   NNW   11.7   11.8   11.4    9.8   588.5  0.00   0.0     0     0.00      0     0.0  0.00   0.0   0.066   0.000   16.5    62    9.2   15.9    0.00   346    1    100.0   15 
15/04/19   2.00   11.8   12.0   11.8    78    8.1   8.0   NNE   2.01  24.1     N   11.2   11.6   10.9    9.3   588.5  0.00   0.0     0     0.00      0     0.0  0.00   0.0   0.068   0.000   16.5    62    9.2   15.9    0.03   343    1    100.0   15 
15/04/19   2.15   12.1   12.1   11.8    76    8.0  12.9   NNE   3.22  27.4    NE   10.5   11.8   10.2    8.7   588.5  0.00   0.0     0     0.00      0     0.0  0.00   0.0   0.065   0.000   16.4    61    8.8   15.8    0.00   341    1     99.7   15 
15/04/19   2.30   11.7   12.1   11.7    77    7.8   9.7   NNE   2.41  24.1   NNE   10.7   11.5   10.5    8.8   588.5  0.00   0.0     0     0.00      0     0.0  0.00   0.0   0.069   0.000   16.4    61    8.8   15.8    0.00   344    1    100.0   15 
15/04/19   2.45   11.9   11.9   11.7    77    8.0   9.7   NNE   2.41  25.7   NNE   10.9   11.7   10.7    9.1   588.5  0.00   0.0     0     0.00      0     0.0  0.00   0.0   0.067   0.000   16.3    61    8.8   15.7    0.00   341    1     99.7   15 
15/04/19   3.00   11.8   11.9   11.8    77    7.9   9.7   NNE   2.41  24.1   NNE   10.9   11.6   10.7    9.0   588.5  0.00   0.0     0     0.00      0     0.0  0.00   0.0   0.068   0.000   16.3    61    8.8   15.7    0.03   341    1     99.7   15 
15/04/19   3.15   11.7   11.8   11.7    79    8.2   8.0   NNE   2.01  20.9     N   11.0   11.6   10.8    9.2   588.5  0.00   0.0     0     0.00      0     0.0  0.00   0.0   0.069   0.000   16.3    61    8.8   15.7    0.00   340    1     99.4   15 
15/04/19   3.30   11.9   11.9   11.7    78    8.2   8.0   NNE   2.01  25.7   NNE   11.3   11.7   11.1    9.4   588.5  0.00   0.0     0     0.00      0     0.0  0.00   0.0   0.067   0.000   16.3    61    8.8   15.7    0.00   337    1     98.5   15 
15/04/19   3.45   12.0   12.1   11.9    77    8.1   8.0   NNE   2.01  25.7     N   11.3   11.8   11.1    9.4   588.5  0.00   0.0     0     0.00      0     0.0  0.00   0.0   0.066   0.000   16.3    62    9.0   15.8    0.00   344    1    100.0   15 
15/04/19   4.00   11.9   12.0   11.9    77    8.0   8.0     N   2.01  22.5   NNE   11.3   11.7   11.1    9.4   588.5  0.00   0.0     0     0.00      0     0.0  0.00   0.0   0.067   0.000   16.3    62    9.0   15.8    0.03   339    1     99.1   15 
15/04/19   4.15   11.8   11.9   11.8    77    7.9   6.4     N   1.61  20.9   NNW   11.4   11.6   11.2    9.5   588.5  0.00   0.0     0     0.00      0     0.0  0.00   0.0   0.068   0.000   16.3    62    9.0   15.8    0.00   335    1     98.0   15 
15/04/19   4.30   11.7   11.9   11.7    77    7.8   8.0   NNE   2.01  22.5   NNE   10.9   11.4   10.7    9.0   588.5  0.00   0.0     0     0.00      0     0.0  0.00   0.0   0.069   0.000   16.2    62    8.9   15.7    0.00   338    1     98.8   15 
15/04/19   4.45   11.7   11.7   11.6    77    7.8   6.4     N   1.61  20.9    NW   11.3   11.5   11.1    9.4   588.5  0.00   0.0     0     0.00      0     0.0  0.00   0.0   0.069   0.000   16.2    62    8.9   15.7    0.00   339    1     99.1   15 
15/04/19   5.00   11.7   11.8   11.6    77    7.8   4.8     N   1.21  24.1     N   11.7   11.5   11.5    9.8   586.6  0.00   0.0     0     0.00      0     0.0  0.00   0.0   0.069   0.000   16.2    62    8.9   15.7    0.03   338    1     98.8   15 
15/04/19   5.15   11.8   11.8   11.7    77    7.9   6.4     N   1.61  19.3     N   11.4   11.6   11.2    9.5   586.6  0.00   0.0     0     0.00      0     0.0  0.00   0.0   0.068   0.000   16.2    61    8.7   15.6    0.00   344    1    100.0   15 
15/04/19   5.30   12.0   12.0   11.8    76    7.9   9.7   NNW   2.41  29.0     N   11.1   11.7   10.8    9.1   586.6  0.00   0.0     0     0.00      0     0.0  0.00   0.0   0.066   0.000   16.2    61    8.7   15.6    0.00   336    1     98.2   15 
15/04/19   5.45   11.9   12.0   11.9    76    7.8   9.7   NNW   2.41  22.5     N   11.0   11.7   10.7    9.1   586.6  0.00   0.0     0     0.00      0     0.0  0.00   0.0   0.067   0.000   16.2    61    8.7   15.6    0.00   341    1     99.7   15 
15/04/19   6.00   12.1   12.1   11.9    76    8.0  11.3   NNW   2.82  27.4   NNW   11.0   11.8   10.7    9.1   590.4  0.00   0.0     0     0.00      0     0.0  0.00   0.0   0.065   0.000   16.2    61    8.7   15.6    0.03   331    1     96.8   15 
15/04/19   6.15   12.2   12.2   12.0    74    7.7  12.9   NNW   3.22  25.7   NNW   10.7   11.9   10.4    8.8   590.4  0.00   0.0     0     0.00      0     0.0  0.00   0.0   0.064   0.000   16.2    61    8.7   15.6    0.00   333    1     97.4   15 
15/04/19   6.30   12.2   12.2   12.1    74    7.7  12.9   NNW   3.22  30.6     N   10.7   11.9   10.4    8.8   590.4  0.00   0.0     0     0.00      0     0.0  0.00   0.0   0.064   0.000   16.2    61    8.7   15.6    0.00   334    1     97.7   15 
15/04/19   6.45   12.2   12.3   12.2    73    7.5  17.7   NNW   4.43  32.2     N    9.7   11.9    9.3    7.9   590.4  0.00   0.0     4     0.09      7     0.0  0.00   0.0   0.064   0.000   16.2    61    8.7   15.6    0.00   337    1     98.5   15 
15/04/19   7.00   12.2   12.3   12.2    73    7.5  17.7   NNW   4.43  29.0    NW    9.7   11.9    9.3    8.0   590.4  0.00   0.0    13     0.28     18     0.0  0.00   0.0   0.064   0.000   16.2    61    8.7   15.6    0.00   338    1     98.8   15 
15/04/19   7.15   12.3   12.3   12.2    72    7.4  14.5   NNW   3.62  32.2   NNW   10.4   12.0   10.1    8.8   590.4  0.00   0.0    26     0.56     53     0.0  0.00   0.0   0.062   0.000   16.2    61    8.7   15.6    0.05   338    1     98.8   15 
15/04/19   7.30   12.8   12.8   12.3    71    7.6  17.7   NNW   4.43  40.2   NNW   10.3   12.4    9.9    9.3   590.4  0.00   0.0    78     1.68     98     0.0  0.00   0.0   0.058   0.000   16.2    61    8.7   15.6    0.00   341    1     99.7   15 
15/04/19   7.45   12.9   12.9   12.8    70    7.6  14.5     N   3.62  38.6    NE   11.2   12.5   10.8   10.6   590.4  0.00   0.0   124     2.67    148     0.0  0.00   0.0   0.056   0.000   16.2    61    8.7   15.6    0.00   337    1     98.5   15 
15/04/19   8.00   13.0   13.1   12.9    70    7.7  17.7   NNE   4.43  38.6   NNE   10.6   12.6   10.1   10.6   590.4  0.00   0.0   180     3.87    207     0.0  0.00   0.0   0.056   0.000   16.2    61    8.7   15.6    0.10   341    1     99.7   15 
15/04/19   8.15   13.2   13.2   13.0    70    7.8  16.1     N   4.02  33.8     N   11.1   12.7   10.6   14.2   590.4  0.00   0.0   241     5.18    269     0.0  0.00   0.0   0.054   0.000   16.2    61    8.7   15.6    0.00   335    1     98.0   15 
15/04/19   8.30   13.3   13.4   13.2    69    7.8  16.1   NNE   4.02  33.8   NNE   11.3   12.9   10.8   15.1   590.4  0.00   0.0   293     6.30    315     0.0  0.00   0.0   0.052   0.000   16.3    61    8.8   15.7    0.00   334    1     97.7   15 
15/04/19   8.45   13.6   13.6   13.3    68    7.8  16.1     N   4.02  32.2     N   11.6   13.1   11.1   16.0   590.4  0.00   0.0   341     7.33    362     0.0  0.00   0.0   0.049   0.000   16.2    60    8.4   15.6    0.00   323    1     94.4   15 
15/04/19   9.00   13.7   13.8   13.6    68    7.9  16.1     N   4.02  32.2   NNE   11.7   13.2   11.2   16.6   590.4  0.00   0.0   390     8.39    434     0.0  0.00   0.0   0.048   0.000   16.2    59    8.2   15.5    0.23   331    1     96.8   15 
15/04/19   9.15   13.8   13.9   13.7    66    7.6  16.1     N   4.02  30.6     N   11.9   13.3   11.3   16.8   590.4  0.00   0.0   430     9.25    450     0.0  0.00   0.0   0.047   0.000   16.2    59    8.2   15.5    0.00   315    1     92.1   15 
15/04/19   9.30   14.1   14.1   13.8    66    7.8  12.9     N   3.22  30.6   NNE   12.9   13.5   12.4   18.4  1029.3  0.00   0.0   473    10.17    494     0.0  0.00   0.0   0.045   0.000   16.2    59    8.2   15.5    0.00   311    1     90.9   15 
15/04/19   9.45   14.2   14.3   14.1    65    7.7  12.9     N   3.22  32.2     N   13.1   13.6   12.5   18.7  1029.3  0.00   0.0   516    11.10    534     0.0  0.00   0.0   0.043   0.000   16.2    59    8.2   15.5    0.00   314    1     91.8   15 
15/04/19  10.00   14.4   14.4   14.2    64    7.7  12.9     N   3.22  30.6     N   13.3   13.8   12.7   18.8  1029.3  0.00   0.0   552    11.87    570     0.0  0.00   0.0   0.041   0.000   16.2    58    7.9   15.4    0.30   298    1     87.1   15 
15/04/19  10.15   14.7   14.7   14.3    64    7.9  12.9   NNE   3.22  27.4     N   13.7   14.1   13.1   19.3  1029.3  0.00   0.0   596    12.82    615     0.0  0.00   0.0   0.038   0.000   16.2    58    7.9   15.4    0.00   318    1     93.0   15 
15/04/19  10.30   14.7   14.8   14.4    64    8.0  14.5     N   3.62  33.8    NE   13.3   14.1   12.7   18.7  1029.3  0.00   0.0   633    13.61    650     0.0  0.00   0.0   0.038   0.000   16.2    58    7.9   15.4    0.00   320    1     93.6   15 
15/04/19  10.45   14.9   15.0   14.7    63    8.0  14.5   NNE   3.62  30.6   NNE   13.6   14.3   12.9   19.0  1029.3  0.00   0.0   667    14.34    684     0.0  0.00   0.0   0.035   0.000   16.2    58    7.9   15.4    0.00   324    1     94.7   15 
15/04/19  11.32    ---    ---    ---   ---    ---   0.0   ---   0.00   0.0   ---    ---    ---    ---    ---  ------  0.00   0.0   ---      ---    ---     ---   ---   ---     ---     ---    ---   ---    ---    ---    0.00     0    1      0.0   15 
15/04/19  11.45   15.6   15.6   15.4    69    9.9   1.6    SW   0.40   9.7    SW   15.6   15.2   15.2   20.3  ------  0.00   0.0   487    10.47    642     0.0  0.00   0.0   0.029   0.000   16.9    61    9.4   16.4    0.00   284    1     83.0   15 
15/04/19  12.00   15.3   15.8   15.2    72   10.3   4.8   SSW   1.21  14.5   SSW   15.3   14.9   14.9   20.6  ------  0.00   0.0   558    12.00    747     0.0  0.00   0.0   0.032   0.000   16.8    62    9.5   16.3    0.30   351    1    100.0   15 
15/04/19  12.15   15.2   15.3   15.0    73   10.4   4.8     S   1.21  14.5     S   15.2   14.8   14.8   19.4  ------  0.00   0.0   436     9.38    478     0.0  0.00   0.0   0.033   0.000   16.8    63    9.7   16.3    0.00   351    1    100.0   15 
15/04/19  12.30   15.7   15.7   15.2    69   10.0   1.6   ESE   0.40   8.0   ESE   15.7   15.3   15.3   20.4  ------  0.00   0.0   496    10.67    545     0.0  0.00   0.0   0.027   0.000   16.8    62    9.5   16.2    0.00   345    1    100.0   15 
15/04/19  12.45   15.2   15.7   15.2    71    9.9   3.2   SSE   0.80   9.7    SE   15.2   14.8   14.8   19.3  ------  0.00   0.0   437     9.40    466     0.0  0.00   0.0   0.033   0.000   16.8    62    9.5   16.3    0.00   350    1    100.0   15 
15/04/19  13.00   15.4   15.4   15.0    70    9.9   1.6   SSE   0.40   9.7   SSE   15.4   15.1   15.1   20.0  ------  0.00   0.0   488    10.49    552     0.0  0.00   0.0   0.031   0.000   16.8    62    9.5   16.2    0.25   349    1    100.0   15 
15/04/19  13.15   15.8   15.8   15.4    71   10.6   0.0   SSE   0.00   8.0   SSE   15.8   15.6   15.6   20.8  ------  0.00   0.0   512    11.01    561     0.0  0.00   0.0   0.026   0.000   16.9    62    9.6   16.4    0.00   349    1    100.0   15 
15/04/19  13.30   15.5   16.0   15.4    70   10.0   1.6   SSE   0.40   8.0   SSE   15.5   15.2   15.2   19.8  ------  0.00   0.0   454     9.76    469     0.0  0.00   0.0   0.030   0.000   16.9    62    9.6   16.4    0.00   348    1    100.0   15 
15/04/19  13.45   15.6   15.7   15.2    71   10.3   1.6   SSE   0.40   9.7   SSE   15.6   15.2   15.2   20.0  ------  0.00   0.0   462     9.93    506     0.0  0.00   0.0   0.029   0.000   17.0    62    9.7   16.5    0.00   332    1     97.1   15 
15/04/19  14.00   15.0   15.6   15.0    72   10.0   3.2   SSE   0.80   9.7   SSE   15.0   14.7   14.7   19.4  ------  0.00   0.0   456     9.81    504     0.0  0.00   0.0   0.035   0.000   17.1    62    9.8   16.6    0.25   335    1     98.0   15 
15/04/19  14.15   15.3   15.3   15.0    70    9.8   3.2   SSE   0.80  11.3   SSE   15.3   14.9   14.9   19.6  ------  0.00   0.0   437     9.40    492     0.0  0.00   0.0   0.032   0.000   17.2    62    9.9   16.7    0.00   349    1    100.0   15 
15/04/19  14.30   15.6   15.6   15.3    69    9.9   3.2   SSE   0.80  16.1   SSE   15.6   15.2   15.2   20.8  ------  0.00   0.0   562    12.08    606     0.0  0.00   0.0   0.029   0.000   17.2    62    9.9   16.7    0.00   352    1    100.0   15 
15/04/19  14.45   15.7   16.0   15.6    70   10.2   3.2   SSE   0.80  14.5   SSE   15.7   15.3   15.3   21.2  1085.3  0.00   0.0   628    13.50    712     0.2  0.02   0.6   0.028   0.000   17.3    62    9.9   16.8    0.00   351    1    100.0   15 
15/04/19  15.00   16.2   16.2   15.6    71   10.9   3.2   SSE   0.80  11.3   SSE   16.2   15.9   15.9   21.7  1085.3  0.00   0.0   669    14.39    805     0.5  0.05   1.1   0.023   0.000   17.4    62   10.0   16.9    0.30   351    1    100.0   15 
15/04/19  15.15   16.2   16.4   16.0    70   10.7   4.8   SSE   1.21  16.1   SSE   16.2   15.8   15.8   22.6   854.3  0.00   0.0   721    15.50    791     0.7  0.07   1.0   0.023   0.000   17.4    61    9.8   16.9    0.00   351    1    100.0   15 
15/04/19  15.30   16.3   16.5   16.0    71   11.1   6.4     S   1.61  17.7     S   16.3   16.1   16.1   23.7   854.3  0.00   0.0   766    16.47    798     0.7  0.07   0.8   0.021   0.000   17.6    61    9.9   17.1    0.00   349    1    100.0   15 
15/04/19  15.45   16.4   16.9   16.4    70   10.9   3.2     S   0.80  12.9     S   16.4   16.1   16.1   23.3   854.3  0.00   0.0   692    14.88    759     0.2  0.02   0.7   0.020   0.000   17.6    61   10.0   17.1    0.00   349    1    100.0   15 
15/04/19  16.00   16.4   16.6   16.1    70   11.0   4.8   SSW   1.21  16.1   SSW   16.4   16.2   16.2   22.8   854.3  0.00   0.0   613    13.18    701     0.0  0.00   0.0   0.020   0.000   17.7    61   10.1   17.3    0.41   349    1    100.0   15 
15/04/19  16.15   16.3   16.8   16.3    71   11.0   4.8   SSW   1.21  14.5   SSW   16.3   16.0   16.0   22.8   854.3  0.00   0.0   589    12.67    654     0.0  0.00   0.0   0.021   0.000   17.8    61   10.2   17.4    0.00   351    1    100.0   15 
15/04/19  16.30   16.7   16.7   16.2    71   11.4   1.6   SSW   0.40  12.9   SSW   16.7   16.4   16.4   21.8   854.3  0.00   0.0   446     9.59    575     0.0  0.00   0.0   0.017   0.000   17.8    61   10.2   17.4    0.00   349    1    100.0   15 
15/04/19  16.45   16.4   17.1   16.4    70   11.0   1.6   SSW   0.40   8.0   SSW   16.4   16.2   16.2   22.0   854.3  0.00   0.0   458     9.85    554     0.0  0.00   0.0   0.020   0.000   17.8    61   10.2   17.4    0.00   352    1    100.0   15 
15/04/19  17.00   16.6   16.9   16.4    71   11.3   0.0   SSW   0.00   8.0   SSW   16.6   16.3   16.3   22.2   854.3  0.00   0.0   425     9.14    626     0.0  0.00   0.0   0.019   0.000   17.8    62   10.4   17.4    0.28   350    1    100.0   15 
15/04/19  17.15   16.6   16.8   16.5    72   11.5   1.6   SSW   0.40  14.5    NE   16.6   16.3   16.3   20.8   854.3  0.00   0.0   299     6.43    338     0.0  0.00   0.0   0.019   0.000   17.8    62   10.4   17.4    0.00   351    1    100.0   15 
15/04/19  17.30   16.1   16.6   16.1    75   11.7   3.2   ENE   0.80  11.3   ENE   16.1   15.9   15.9   20.5   854.3  0.00   0.0   296     6.36    301     0.0  0.00   0.0   0.023   0.000   17.7    62   10.3   17.3    0.00   349    1    100.0   15 
15/04/19  17.45   16.3   16.4   16.1    73   11.4   1.6    SE   0.40  16.1    SE   16.3   16.1   16.1   21.1   854.3  0.00   0.0   303     6.52    316     0.0  0.00   0.0   0.021   0.000   17.7    62   10.3   17.3    0.00   351    1    100.0   15 
15/04/19  18.00   16.5   16.5   16.3    74   11.8   1.6    SE   0.40  14.5    SE   16.5   16.3   16.3   22.2   854.3  0.00   0.0   320     6.88    399     0.0  0.00   0.0   0.019   0.000   17.7    62   10.3   17.3    0.18   351    1    100.0   15 
15/04/19  18.15   16.2   16.7   16.2    73   11.4   1.6    SE   0.40   8.0    SE   16.2   16.0   16.0   22.1   854.3  0.00   0.0   310     6.67    403     0.0  0.00   0.0   0.022   0.000   17.7    62   10.3   17.3    0.00   350    1    100.0   15 
15/04/19  18.30   16.5   16.6   16.2    73   11.6   0.0    SE   0.00   1.6    SE   16.5   16.3   16.3   16.8   854.3  0.00   0.0   176     3.78    195     0.0  0.00   0.0   0.019   0.000   17.7    62   10.3   17.3    0.00   351    1    100.0   15 
15/04/19  18.45   16.3   16.5   16.1    74   11.7   0.0    SE   0.00   4.8    SE   16.3   16.2   16.2   16.8   854.3  0.00   0.0   192     4.13    211     0.0  0.00   0.0   0.021   0.000   17.7    62   10.3   17.3    0.00   349    1    100.0   15 
15/04/19  19.00   16.3   16.4   16.3    74   11.6   0.0    SE   0.00   6.4    SE   16.3   16.1   16.1   16.9   854.3  0.00   0.0   205     4.41    218     0.0  0.00   0.0   0.021   0.000   17.6    62   10.2   17.2    0.13   350    1    100.0   15 
15/04/19  19.15   16.3   16.4   16.3    73   11.5   1.6    SE   0.40  11.3    SE   16.3   16.1   16.1   16.9   854.3  0.00   0.0   210     4.52    243     0.0  0.00   0.0   0.021   0.000   17.6    63   10.5   17.2    0.00   350    1    100.0   15 
15/04/19  19.30   15.9   16.3   15.9    75   11.5   4.8   ESE   1.21  16.1   ENE   15.9   15.7   15.7   16.1   854.3  0.00   0.0   168     3.61    181     0.0  0.00   0.0   0.025   0.000   17.6    63   10.4   17.2    0.00   351    1    100.0   15 
15/04/19  19.45   15.4   15.9   15.4    76   11.2   6.4    NE   1.61  16.1    NE   15.4   15.2   15.2   15.2   854.3  0.00   0.0   143     3.07    192     0.0  0.00   0.0   0.031   0.000   17.4    63   10.3   17.1    0.00   351    1    100.0   15 
15/04/19  20.00   15.1   15.4   15.1    77   11.1   6.4    NE   1.61  16.1    NE   15.1   14.9   14.9   14.3   854.3  0.00   0.0    90     1.94    100     0.0  0.00   0.0   0.034   0.000   17.4    63   10.3   17.1    0.10   351    1    100.0   15 
15/04/19  20.15   15.0   15.1   15.0    78   11.2   4.8    NE   1.21  16.1    NE   15.0   14.8   14.8   14.1   689.5  0.00   0.0    73     1.57     79     0.0  0.00   0.0   0.035   0.000   17.4    64   10.5   17.0    0.00   351    1    100.0   15 
15/04/19  20.30   14.8   15.0   14.8    77   10.8   6.4    NE   1.61  19.3    NE   14.8   14.6   14.6   13.5   817.6  0.00   0.0    46     0.99     60     0.0  0.00   0.0   0.036   0.000   17.3    64   10.4   16.9    0.00   348    1    100.0   15 
15/04/19  20.45   14.8   14.8   14.8    76   10.6   6.4    NE   1.61  19.3   NNE   14.8   14.6   14.6   13.2   817.6  0.00   0.0    25     0.54     35     0.0  0.00   0.0   0.037   0.000   17.2    64   10.3   16.8    0.00   350    1    100.0   15 
15/04/19  21.00   14.7   14.8   14.7    75   10.3   8.0   NNE   2.01  16.1   NNE   14.5   14.4   14.2   12.6   817.6  0.00   0.0     9     0.19     16     0.0  0.00   0.0   0.038   0.000   17.2    64   10.3   16.8    0.05   352    1    100.0   15 
15/04/19  21.15   14.6   14.7   14.6    74   10.0   3.2   NNE   0.80  11.3   NNE   14.6   14.3   14.3   12.6   817.6  0.00   0.0     0     0.00      0     0.0  0.00   0.0   0.039   0.000   17.1    63   10.0   16.7    0.00   351    1    100.0   15 
15/04/19  21.30   14.5   14.7   14.5    72    9.5   3.2   NNE   0.80   9.7   NNE   14.5   14.1   14.1   12.4   817.6  0.00   0.0     0     0.00      0     0.0  0.00   0.0   0.040   0.000   17.0    63    9.9   16.6    0.00   349    1    100.0   15 
15/04/19  21.45   14.6   14.6   14.5    72    9.6   4.8   NNE   1.21   9.7   NNE   14.6   14.2   14.2   12.4  1089.0  0.00   0.0     0     0.00      0     0.0  0.00   0.0   0.039   0.000   17.0    63    9.9   16.6    0.00   350    1    100.0   15 
15/04/19  22.00   14.5   14.6   14.4    72    9.5   6.4   NNE   1.61  11.3   NNE   14.5   14.1   14.1   12.4  1089.0  0.00   0.0     0     0.00      0     0.0  0.00   0.0   0.040   0.000   17.0    63    9.9   16.6    0.03   349    1    100.0   15 
15/04/19  22.15   14.4   14.5   14.3    72    9.4   4.8   NNE   1.21   9.7   NNE   14.4   14.0   14.0   12.3  1089.0  0.00   0.0     0     0.00      0     0.0  0.00   0.0   0.041   0.000   16.9    62    9.6   16.4    0.00   351    1    100.0   15 
15/04/19  22.30   14.2   14.4   14.2    74    9.7   4.8   NNE   1.21  11.3    NE   14.2   13.9   13.9   12.2  1089.0  0.00   0.0     0     0.00      0     0.0  0.00   0.0   0.043   0.000   16.9    62    9.6   16.4    0.00   350    1    100.0   15 
15/04/19  22.45   14.1   14.3   14.1    74    9.5   6.4    NE   1.61  12.9    NE   14.1   13.8   13.8   12.1  1089.0  0.00   0.0     0     0.00      0     0.0  0.00   0.0   0.044   0.000   16.8    62    9.5   16.3    0.00   350    1    100.0   15 
15/04/19  23.00   13.8   14.1   13.8    75    9.5   6.4   NNE   1.61  11.3   NNE   13.8   13.6   13.6   11.8  1089.0  0.00   0.0     0     0.00      0     0.0  0.00   0.0   0.047   0.000   16.8    62    9.5   16.3    0.03   351    1    100.0   15 
15/04/19  23.15   13.7   13.8   13.7    76    9.6   4.8   NNE   1.21  11.3   NNE   13.7   13.4   13.4   11.7  1089.0  0.00   0.0     0     0.00      0     0.0  0.00   0.0   0.048   0.000   16.8    63    9.7   16.3    0.00   352    1    100.0   15 
15/04/19  23.30   13.5   13.8   13.5    77    9.5   4.8   NNE   1.21  11.3   NNE   13.5   13.2   13.2   11.5  1089.0  0.00   0.0     0     0.00      0     0.0  0.00   0.0   0.050   0.000   16.8    63    9.7   16.3    0.00   350    1    100.0   15 
15/04/19  23.45   13.6   13.7   13.4    77    9.7   4.8   NNE   1.21   9.7   NNE   13.6   13.4   13.4   11.7  1089.0  0.00   0.0     0     0.00      0     0.0  0.00   0.0   0.049   0.000   16.8    63    9.7   16.3    0.00   348    1    100.0   15 
16/04/19  00.00   13.7   13.8   13.6    76    9.6   3.2   NNE   0.80   9.7   NNE   13.7   13.4   13.4   11.7  1089.0  0.00   0.0     0     0.00      0     0.0  0.00   0.0   0.048   0.000   16.8    63    9.7   16.3    0.03   351    1    100.0   15 
16/04/19   0.15   13.6   13.8   13.6    77    9.6   1.6   NNE   0.40   8.0   NNE   13.6   13.3   13.3   11.6  1089.0  0.00   0.0     0     0.00      0     0.0  0.00   0.0   0.050   0.000   16.7    63    9.6   16.2    0.00   348    1    100.0   15 
16/04/19   0.30   13.7   13.7   13.5    76    9.5   3.2   NNE   0.80   8.0   NNE   13.7   13.4   13.4   11.7  1089.0  0.00   0.0     0     0.00      0     0.0  0.00   0.0   0.049   0.000   16.7    63    9.6   16.2    0.00   350    1    100.0   15 
16/04/19   0.45   13.4   13.7   13.4    77    9.4   0.0   NNE   0.00   4.8   NNE   13.4   13.1   13.1   11.4  1089.0  0.00   0.0     0     0.00      0     0.0  0.00   0.0   0.052   0.000   16.7    63    9.6   16.2    0.00   350    1    100.0   15 
16/04/19   1.00   13.2   13.4   13.2    78    9.4   1.6   NNE   0.40   6.4   NNE   13.2   12.9   12.9   11.2  1089.0  0.00   0.0     0     0.00      0     0.0  0.00   0.0   0.054   0.000   16.6    63    9.5   16.1    0.03   349    1    100.0   15 
16/04/19   1.15   13.1   13.2   13.0    79    9.5   1.6   NNE   0.40   8.0   NNE   13.1   12.9   12.9   11.2  1089.0  0.00   0.0     0     0.00      0     0.0  0.00   0.0   0.055   0.000   16.6    63    9.5   16.1    0.00   348    1    100.0   15 
16/04/19   1.30   13.0   13.1   13.0    80    9.6   0.0   NNE   0.00   4.8   NNE   13.0   12.8   12.8   11.1  1089.0  0.00   0.0     0     0.00      0     0.0  0.00   0.0   0.056   0.000   16.6    63    9.5   16.1    0.00   350    1    100.0   15 
16/04/19   1.45   13.2   13.2   13.0    80    9.8   0.0   NNE   0.00   1.6   NNE   13.2   13.0   13.0   11.3  1089.0  0.00   0.0     0     0.00      0     0.0  0.00   0.0   0.054   0.000   16.6    63    9.5   16.1    0.00   351    1    100.0   15 
16/04/19   2.00   12.8   13.2   12.8    80    9.5   0.0   NNE   0.00   3.2   NNE   12.8   12.7   12.7   10.9  1089.0  0.00   0.0     0     0.00      0     0.0  0.00   0.0   0.057   0.000   16.6    64    9.8   16.2    0.03   350    1    100.0   15 
16/04/19   2.15   12.3   12.8   12.3    79    8.8   0.0   NNE   0.00   1.6   NNE   12.3   12.2   12.2   10.4  1089.0  0.00   0.0     0     0.00      0     0.0  0.00   0.0   0.062   0.000   16.5    64    9.7   16.1    0.00   351    1    100.0   15 
16/04/19   2.30   11.9   12.4   11.9    80    8.5   0.0   ---   0.00   0.0   ---   11.9   11.7   11.7    9.9  1089.0  0.00   0.0     0     0.00      0     0.0  0.00   0.0   0.067   0.000   16.5    63    9.4   16.0    0.00   350    1    100.0   15 
16/04/19   2.45   11.3   11.9   11.3    81    8.1   0.0   ---   0.00   0.0   ---   11.3   11.2   11.2    9.4  1089.0  0.00   0.0     0     0.00      0     0.0  0.00   0.0   0.073   0.000   16.5    63    9.4   16.0    0.00   352    1    100.0   15 
16/04/19   3.00   10.3   11.2   10.3    82    7.4   0.0   NNE   0.00   1.6   NNE   10.3   10.3   10.3    8.5  1089.0  0.00   0.0     0     0.00      0     0.0  0.00   0.0   0.083   0.000   16.5    63    9.4   16.0    0.03   350    1    100.0   15 
16/04/19   3.15    9.8   10.3    9.8    84    7.2   0.0   ---   0.00   0.0   ---    9.8    9.8    9.8    8.0   579.8  0.00   0.0     0     0.00      0     0.0  0.00   0.0   0.089   0.000   16.4    63    9.3   15.9    0.00   349    1    100.0   15 
16/04/19   3.30    9.3    9.8    9.3    85    6.9   0.0   ---   0.00   0.0   ---    9.3    9.4    9.4    7.6   579.8  0.00   0.0     0     0.00      0     0.0  0.00   0.0   0.094   0.000   16.4    63    9.3   15.9    0.00   350    1    100.0   15 
16/04/19   3.45    9.3    9.4    9.3    85    6.9   0.0   ---   0.00   0.0   ---    9.3    9.3    9.3    7.5   579.8  0.00   0.0     0     0.00      0     0.0  0.00   0.0   0.094   0.000   16.3    62    9.0   15.8    0.00   349    1    100.0   15 
16/04/19   4.00    9.6    9.6    9.3    85    7.2   0.0   ---   0.00   0.0   ---    9.6    9.7    9.7    7.8   579.8  0.00   0.0     0     0.00      0     0.0  0.00   0.0   0.091   0.000   16.3    62    9.0   15.8    0.00   352    1    100.0   15 
16/04/19   4.15   11.4   11.5    9.6    86    9.1   0.0   NNE   0.00   4.8   NNE   11.4   11.4   11.4    9.7   579.8  0.00   0.0     0     0.00      0     0.0  0.00   0.0   0.072   0.000   16.3    62    9.0   15.8    0.00   351    1    100.0   15 
16/04/19   4.30   11.8   11.8   11.1    85    9.4   1.6   NNE   0.40   6.4   NNE   11.8   11.8   11.8   10.1   579.8  0.00   0.0     0     0.00      0     0.0  0.00   0.0   0.068   0.000   16.3    62    9.0   15.8    0.00   351    1    100.0   15 
16/04/19   4.45   10.3   11.9   10.3    86    8.0   1.6   NNE   0.40   6.4   NNE   10.3   10.3   10.3    8.6   579.8  0.00   0.0     0     0.00      0     0.0  0.00   0.0   0.084   0.000   16.3    62    9.0   15.8    0.00   350    1    100.0   15 
16/04/19   5.00    9.8   10.3    9.6    87    7.8   0.0   NNE   0.00   3.2   NNE    9.8    9.9    9.9    8.1   579.8  0.00   0.0     0     0.00      0     0.0  0.00   0.0   0.089   0.000   16.3    62    9.0   15.8    0.00   351    1    100.0   15 
16/04/19   5.15    9.3    9.9    9.3    87    7.3   0.0   NNE   0.00   1.6   NNE    9.3    9.4    9.4    7.6   579.8  0.00   0.0     0     0.00      0     0.0  0.00   0.0   0.094   0.000   16.2    62    8.9   15.7    0.00   348    1    100.0   15 
16/04/19   5.30    9.1    9.6    9.1    87    7.0   0.0   ---   0.00   0.0   ---    9.1    9.1    9.1    7.3   579.8  0.00   0.0     0     0.00      0     0.0  0.00   0.0   0.097   0.000   16.2    62    8.9   15.7    0.00   349    1    100.0   15 
16/04/19   5.45    8.9    9.1    8.8    87    6.8   0.0   ---   0.00   0.0   ---    8.9    8.9    8.9    7.1   587.3  0.00   0.0     0     0.00      0     0.0  0.00   0.0   0.098   0.000   16.2    62    8.9   15.7    0.00   351    1    100.0   15 
16/04/19   6.00    8.9    8.9    8.8    87    6.9   0.0   ---   0.00   0.0   ---    8.9    9.0    9.0    7.2   587.3  0.00   0.0     0     0.00      0     0.0  0.00   0.0   0.098   0.000   16.2    62    8.9   15.7    0.00   351    1    100.0   15 
16/04/19   6.15    9.2    9.2    8.9    87    7.1   0.0   ---   0.00   0.0   ---    9.2    9.2    9.2    7.4   587.3  0.00   0.0     0     0.00      0     0.0  0.00   0.0   0.095   0.000   16.2    62    8.9   15.6    0.00   350    1    100.0   15 
16/04/19   6.30    9.7    9.8    9.1    88    7.8   0.0   NNE   0.00   1.6   NNE    9.7    9.8    9.8    8.1   587.3  0.00   0.0     0     0.00      0     0.0  0.00   0.0   0.090   0.000   16.2    62    8.9   15.6    0.00   349    1    100.0   15 
16/04/19   6.45   10.3   10.3    9.7    89    8.5   0.0   NNE   0.00   1.6   NNE   10.3   10.4   10.4    8.6   587.3  0.00   0.0     0     0.00      0     0.0  0.00   0.0   0.084   0.000   16.1    62    8.8   15.5    0.00   350    1    100.0   15 
16/04/19   7.00   11.0   11.3   10.3    89    9.3   0.0   NNE   0.00   4.8   NNE   11.0   11.1   11.1    9.4   589.0  0.00   0.0     0     0.00      0     0.0  0.00   0.0   0.076   0.000   16.1    62    8.8   15.5    0.00   351    1    100.0   15 
16/04/19   7.15   12.4   12.4   11.0    87   10.3   4.8   NNE   1.21   6.4   NNE   12.4   12.4   12.4   10.7   589.0  0.00   0.0     0     0.00      0     0.0  0.00   0.0   0.062   0.000   16.1    62    8.8   15.5    0.00   352    1    100.0   15 
16/04/19   7.30   12.0   12.4   11.8    86    9.7   6.4   NNE   1.61  11.3   NNE   11.7   11.9   11.6    9.9   589.0  0.00   0.0     0     0.00      0     0.0  0.00   0.0   0.066   0.000   16.0    62    8.7   15.4    0.00   349    1    100.0   15 
16/04/19   7.45   11.3   12.0   11.3    87    9.2   3.2   NNE   0.80   9.7   NNE   11.3   11.3   11.3    9.6   589.0  0.00   0.0     2     0.04      7     0.0  0.00   0.0   0.073   0.000   16.0    63    9.0   15.4    0.00   349    1    100.0   15 
16/04/19   8.00   11.0   11.3   11.0    87    8.9   0.0   NNE   0.00   6.4   NNE   11.0   11.1   11.1    9.4   589.0  0.00   0.0    10     0.22     12     0.0  0.00   0.0   0.076   0.000   16.0    63    9.0   15.4    0.00   349    1    100.0   15 
16/04/19   8.15   10.1   11.0   10.1    86    7.9   0.0   ---   0.00   0.0   ---   10.1   10.2   10.2    9.4   589.0  0.00   0.0    17     0.37     23     0.0  0.00   0.0   0.086   0.000   16.0    63    9.0   15.4    0.00   352    1    100.0   15 
16/04/19   8.30   10.4   10.4   10.1    86    8.2   0.0   NNE   0.00   1.6   NNE   10.4   10.5   10.5   10.8   589.0  0.00   0.0    58     1.25     79     0.0  0.00   0.0   0.082   0.000   16.0    63    9.0   15.4    0.00   350    1    100.0   15 
16/04/19   8.45   12.1   12.1   10.4    86    9.8   1.6   NNE   0.40   8.0   NNE   12.1   12.0   12.0   13.3   589.0  0.00   0.0   102     2.19    135     0.0  0.00   0.0   0.065   0.000   16.0    63    9.0   15.4    0.00   350    1    100.0   15 
16/04/19   9.00   13.7   13.7   12.1    84   11.0   8.0   NNE   2.01  17.7   NNE   13.3   13.6   13.3   15.7   589.0  0.00   0.0   164     3.53    193     0.0  0.00   0.0   0.049   0.000   16.0    64    9.2   15.5    0.05   350    1    100.0   15 
16/04/19   9.15   14.1   14.1   13.7    83   11.3   9.7   NNE   2.41  19.3   NNE   13.6   14.0   13.5   16.9   589.0  0.00   0.0   220     4.73    257     0.0  0.00   0.0   0.044   0.000   16.1    65    9.5   15.6    0.00   346    1    100.0   15 
16/04/19   9.30   14.4   14.4   14.1    82   11.4   9.7   NNE   2.41  19.3   NNE   13.9   14.3   13.8   18.1   589.0  0.00   0.0   284     6.11    308     0.0  0.00   0.0   0.041   0.000   16.2    65    9.6   15.7    0.00   345    1    100.0   15 
16/04/19   9.45   14.5   14.5   14.4    82   11.5  12.9   NNE   3.22  20.9    NE   13.4   14.4   13.3   17.7   589.0  0.00   0.0   330     7.10    350     0.0  0.00   0.0   0.040   0.000   16.2    67   10.1   15.8    0.00   348    1    100.0   15 
16/04/19  10.00   14.6   14.7   14.5    81   11.4  12.9   NNE   3.22  22.5   NNE   13.6   14.5   13.5   18.1   589.0  0.00   0.0   374     8.04    396     0.0  0.00   0.0   0.039   0.000   16.2    68   10.3   15.8    0.18   346    1    100.0   15 
16/04/19  10.15   15.1   15.1   14.6    80   11.6  11.3   NNE   2.82  20.9   NNE   14.5   14.9   14.4   19.5   589.0  0.00   0.0   417     8.97    443     0.0  0.00   0.0   0.034   0.000   16.2    68   10.3   15.8    0.00   335    1     98.0   15 
16/04/19  10.30   15.2   15.2   14.9    78   11.4  11.3   NNE   2.82  24.1   NNE   14.7   15.0   14.5   19.9   589.0  0.00   0.0   461     9.91    480     0.0  0.00   0.0   0.033   0.000   16.2    68   10.3   15.8    0.00   344    1    100.0   15 
16/04/19  10.45   15.5   15.5   14.9    75   11.1   8.0   NNE   2.01  19.3   NNE   15.5   15.3   15.3   20.9   589.0  0.00   0.0   501    10.77    519     0.0  0.00   0.0   0.030   0.000   16.3    68   10.4   16.0    0.00   341    1     99.7   15 
16/04/19  11.00   15.7   15.7   15.3    76   11.4   8.0   NNE   2.01  17.7    NE   15.7   15.5   15.5   21.3   589.0  0.00   0.0   540    11.61    563     0.0  0.00   0.0   0.028   0.000   16.3    68   10.4   16.0    0.28   350    1    100.0   15 
16/04/19  11.15   15.4   15.6   15.4    74   10.8   9.7   NNE   2.41  17.7   NNE   15.2   15.2   14.9   20.8   589.0  0.00   0.0   581    12.49    598     0.0  0.00   0.0   0.030   0.000   16.4    68   10.5   16.1    0.00   331    1     96.8   15 
16/04/19  11.30   16.0   16.0   15.4    73   11.2   8.0    NE   2.01  17.7    NE   16.0   15.8   15.8   21.7   589.0  0.00   0.0   619    13.31    636     0.0  0.00   0.0   0.024   0.000   16.4    68   10.5   16.1    0.00   345    1    100.0   15 
16/04/19  11.45   16.0   16.3   15.7    71   10.7   8.0    NE   2.01  16.1    NE   16.0   15.7   15.7   21.6   589.0  0.00   0.0   656    14.11    675     0.0  0.00   0.0   0.024   0.000   16.6    68   10.7   16.3    0.00   322    1     94.2   15 
16/04/19  12.00   16.8   16.8   15.9    65   10.2   4.8    NE   1.21  16.1    NE   16.8   16.4   16.4   22.0   589.0  0.00   0.0   690    14.84    703     0.0  0.00   0.0   0.016   0.000   16.7    67   10.5   16.3    0.36   325    1     95.0   15 
16/04/19  12.15   16.8   17.0   16.4    61    9.3   6.4    NE   1.61  16.1    NE   16.8   16.2   16.2   21.8   589.0  0.00   0.0   716    15.40    729     0.0  0.00   0.0   0.016   0.000   16.8    68   10.9   16.6    0.00   351    1    100.0   15 
16/04/19  12.30   16.6   16.9   16.6    61    9.1   8.0    NE   2.01  19.3   NNE   16.6   16.0   16.0   21.7   589.0  0.00   0.0   747    16.06    759     0.0  0.00   0.0   0.018   0.000   16.8    66   10.4   16.4    0.00   352    1    100.0   15 
16/04/19  12.45   16.8   16.9   16.4    64    9.9   9.7   NNE   2.41  17.7   NNE   16.8   16.3   16.3   22.2   589.0  0.00   0.0   772    16.60    784     0.2  0.02   0.6   0.016   0.000   16.8    65   10.2   16.4    0.00   351    1    100.0   15 
16/04/19  13.00   16.8   16.8   16.3    65   10.2  14.5   NNE   3.62  22.5   NNE   15.8   16.4   15.4   20.9   589.0  0.00   0.0   792    17.03    803     0.6  0.06   0.7   0.016   0.000   16.8    65   10.2   16.4    0.46   350    1    100.0   15 
16/04/19  13.15   16.7   17.3   16.7    64    9.9  12.9   NNE   3.22  20.9   NNE   16.1   16.3   15.7   21.5   589.0  0.00   0.0   813    17.48    823     0.8  0.09   1.0   0.017   0.000   16.9    64   10.1   16.6    0.00   348    1    100.0   15 
16/04/19  13.30   16.7   17.1   16.6    64    9.8  12.9   NNE   3.22  22.5   NNE   16.1   16.2   15.6   21.6   589.0  0.00   0.0   823    17.70    828     1.0  0.11   1.1   0.017   0.000   17.0    64   10.1   16.6    0.00   350    1    100.0   15 
16/04/19  13.45   17.2   17.3   16.7    63   10.1   9.7     N   2.41  19.3   NNE   17.2   16.8   16.8   23.3   589.0  0.00   0.0   837    18.00    849     1.2  0.13   1.3   0.012   0.000   17.1    64   10.2   16.7    0.00   352    1    100.0   15 
17/04/19  13.00   17.6   17.7   17.2    61   10.0   8.0   NNE   2.01  19.3   NNE   17.6   17.1   17.1   23.6   589.0  0.00   0.0   844    18.15    851     1.4  0.15   1.4   0.008   0.000   17.3    65   10.6   16.9    0.51   397    1    100.0   15 
17/04/19  13.15   17.7   17.9   17.3    60    9.8   9.7   NNE   2.41  19.3   NNE   17.7   17.2   17.2   23.7   589.0  0.00   0.0   851    18.30    853     1.5  0.16   1.5   0.007   0.000   17.4    64   10.5   17.0    0.00   349    1    100.0   15 
17/04/19  13.30   17.8   17.8   17.4    60    9.9   9.7   NNE   2.41  19.3     N   17.8   17.3   17.3   23.8   854.3  0.00   0.0   845    18.17    860     1.5  0.16   1.5   0.006   0.000   17.6    63   10.4   17.2    0.00   351    1    100.0   15 
17/04/19  13.45   17.8   18.1   17.7    62   10.4   8.0     N   2.01  20.9   NNE   17.8   17.4   17.4   23.9   854.3  0.00   0.0   836    17.98    863     1.4  0.15   1.5   0.006   0.000   17.6    62   10.2   17.2    0.00   350    1    100.0   15 
17/04/19  14.00   17.5   17.8   17.4    61    9.9   9.7   NNE   2.41  19.3   NNE   17.5   17.0   17.0   23.4   854.3  0.00   0.0   815    17.52    853     1.2  0.13   1.3   0.009   0.000   17.7    62   10.3   17.3    0.53   351    1    100.0   15 
17/04/19  14.15   17.8   18.1   17.3    59    9.7   8.0     N   2.01  22.5   NNE   17.8   17.2   17.2   23.6   854.3  0.00   0.0   801    17.22    838     1.0  0.11   1.3   0.006   0.000   17.8    62   10.4   17.4    0.00   350    1    100.0   15 
17/04/19  14.30   17.4   17.9   17.0    61    9.8  11.3   NNE   2.82  22.5   NNE   17.4   16.9   16.9   22.8   854.3  0.00   0.0   749    16.11    840     0.8  0.09   1.2   0.009   0.000   17.9    62   10.5   17.5    0.00   351    1    100.0   15 
17/04/19  14.45   17.7   17.7   17.2    63   10.5  11.3     N   2.82  22.5     N   17.7   17.3   17.3   23.7   854.3  0.00   0.0   775    16.66    802     0.7  0.07   0.8   0.007   0.000   18.0    61   10.4   17.6    0.00   351    1    100.0   15 
17/04/19  15.00   17.7   17.9   17.3    59    9.6  11.3   NNE   2.82  20.9     N   17.7   17.1   17.1   23.7   854.3  0.00   0.0   769    16.54    793     0.5  0.05   0.7   0.007   0.000   18.1    61   10.5   17.7    0.48   351    1    100.0   15 
17/04/19  15.15   17.6   17.8   17.4    61    9.9   9.7   NNE   2.41  20.9   NNE   17.6   17.1   17.1   23.9   745.8  0.00   0.0   746    16.04    775     0.0  0.00   0.0   0.008   0.000   18.2    61   10.5   17.8    0.00   350    1    100.0   15 
17/04/19  15.30   17.6   17.8   17.3    61    9.9   9.7     N   2.41  22.5    NE   17.6   17.1   17.1   23.7   745.8  0.00   0.0   698    15.01    759     0.0  0.00   0.0   0.008   0.000   18.3    61   10.6   17.9    0.00   351    1    100.0   15 
17/04/19  15.45   17.8   17.8   17.3    59    9.7   9.7   NNE   2.41  20.9    NE   17.8   17.3   17.3   24.4   745.8  0.00   0.0   707    15.20    724     0.0  0.00   0.0   0.005   0.000   18.4    60   10.5   18.0    0.00   352    1    100.0   15 
17/04/19  16.00   17.9   17.9   17.3    61   10.3   8.0   NNE   2.01  19.3     N   17.9   17.4   17.4   24.3   745.8  0.00   0.0   644    13.85    693     0.0  0.00   0.0   0.005   0.000   18.6    60   10.6   18.1    0.46   350    1    100.0   15 
17/04/19  16.15   17.5   18.0   17.3    61    9.9   8.0   NNE   2.01  19.3    NE   17.5   17.0   17.0   23.7   745.8  0.00   0.0   594    12.77    659     0.0  0.00   0.0   0.009   0.000   18.7    60   10.8   18.3    0.00   351    1    100.0   15 
17/04/19  16.30   17.2   17.8   17.2    59    9.1   9.7   NNE   2.41  22.5   NNE   17.2   16.6   16.6   23.8   745.8  0.00   0.0   599    12.88    615     0.0  0.00   0.0   0.012   0.000   18.8    60   10.9   18.4    0.00   351    1    100.0   15 
17/04/19  16.45   17.5   17.6   17.2    58    9.1  11.3   NNE   2.82  19.3   NNE   17.5   16.9   16.9   23.9   745.8  0.00   0.0   553    11.89    577     0.0  0.00   0.0   0.009   0.000   18.9    59   10.7   18.4    0.00   351    1    100.0   15 
17/04/19  17.00   17.7   18.0   17.5    58    9.3   6.4   NNE   1.61  19.3   NNE   17.7   17.1   17.1   24.2   745.8  0.00   0.0   511    10.99    533     0.0  0.00   0.0   0.006   0.000   19.0    59   10.8   18.6    0.38   350    1    100.0   15 
17/04/19  17.15   17.3   17.9   17.1    61    9.7   9.7   NNE   2.41  20.9   NNE   17.3   16.8   16.8   23.8   745.8  0.00   0.0   468    10.06    489     0.0  0.00   0.0   0.010   0.000   19.1    58   10.6   18.6    0.00   350    1    100.0   15 
17/04/19  17.30   17.3   17.7   17.2    59    9.2   8.0   NNE   2.01  17.7   NNE   17.3   16.7   16.7   23.6   745.8  0.00   0.0   428     9.20    448     0.0  0.00   0.0   0.011   0.000   19.1    58   10.6   18.6    0.00   349    1    100.0   15 
17/04/19  17.45   17.3   17.4   17.1    61    9.7   9.7   NNE   2.41  17.7   NNE   17.3   16.7   16.7   23.3   745.8  0.00   0.0   384     8.26    404     0.0  0.00   0.0   0.011   0.000   19.1    58   10.6   18.6    0.00   351    1    100.0   15 
17/04/19  18.00   16.8   17.3   16.8    64    9.9  12.9   NNE   3.22  20.9    NE   16.2   16.3   15.7   21.4   745.8  0.00   0.0   340     7.31    360     0.0  0.00   0.0   0.016   0.000   18.9    58   10.4   18.4    0.28   352    1    100.0   15 
17/04/19  18.15   16.4   17.1   16.4    66   10.1  11.3   NNE   2.82  22.5   NNE   16.2   16.1   15.8   20.6   745.8  0.00   0.0   266     5.72    313     0.0  0.00   0.0   0.020   0.000   18.7    58   10.3   18.2    0.00   351    1    100.0   15 
17/04/19  18.30   16.6   16.6   16.4    70   11.1   8.0   NNE   2.01  22.5   NNE   16.6   16.3   16.3   17.3   745.8  0.00   0.0   215     4.62    267     0.0  0.00   0.0   0.018   0.000   18.6    59   10.4   18.1    0.00   350    1    100.0   15 
17/04/19  18.45   16.0   16.7   16.0    73   11.2  11.3   NNE   2.82  22.5     N   15.7   15.8   15.4   15.7   745.8  0.00   0.0   161     3.46    206     0.0  0.00   0.0   0.024   0.000   18.4    59   10.3   17.9    0.00   349    1    100.0   15 
17/04/19  19.00   15.8   16.0   15.8    73   10.9  12.9   NNE   3.22  25.7    NE   15.0   15.5   14.7   14.8   745.8  0.00   0.0   143     3.07    169     0.0  0.00   0.0   0.027   0.000   18.3    60   10.4   17.8    0.15   350    1    100.0   15 
17/04/19  19.15   15.6   15.8   15.6    75   11.2  12.9   NNE   3.22  22.5    NE   14.8   15.4   14.6   14.1   745.8  0.00   0.0    97     2.09    123     0.0  0.00   0.0   0.028   0.000   18.2    60   10.3   17.7    0.00   351    1    100.0   15 
17/04/19  19.30   15.2   15.6   15.2    77   11.2  14.5   NNE   3.62  25.7    NE   13.9   15.1   13.7   12.6   854.3  0.00   0.0    35     0.75     46     0.0  0.00   0.0   0.032   0.000   18.1    61   10.5   17.7    0.00   351    1    100.0   15 
17/04/19  19.45   15.1   15.2   15.1    78   11.3  12.9   NNE   3.22  25.7   NNE   14.2   14.9   14.0   12.7   854.3  0.00   0.0    20     0.43     26     0.0  0.00   0.0   0.034   0.000   18.0    61   10.4   17.6    0.00   350    1    100.0   15 
17/04/19  20.00   14.9   15.1   14.9    79   11.3   9.7   NNE   2.41  24.1   NNE   14.6   14.8   14.4   12.9   854.3  0.00   0.0     6     0.13     11     0.0  0.00   0.0   0.035   0.000   17.9    62   10.5   17.5    0.05   352    1    100.0   15 
17/04/19  20.15   14.7   14.9   14.7    81   11.4   6.4   NNE   1.61  19.3   NNE   14.7   14.6   14.6   12.9   854.3  0.00   0.0     0     0.00      0     0.0  0.00   0.0   0.038   0.000   17.8    62   10.4   17.4    0.00   350    1    100.0   15 
17/04/19  20.30   14.4   14.7   14.4    81   11.2   6.4   NNE   1.61  22.5   NNE   14.4   14.3   14.3   12.7   854.3  0.00   0.0     0     0.00      0     0.0  0.00   0.0   0.041   0.000   17.8    63   10.7   17.5    0.00   351    1    100.0   15 
17/04/19  20.45   14.3   14.4   14.3    80   10.9   4.8   NNE   1.21  17.7   NNE   14.3   14.2   14.2   12.6   854.3  0.00   0.0     0     0.00      0     0.0  0.00   0.0   0.042   0.000   17.7    63   10.6   17.3    0.00   351    1    100.0   15 
17/04/19  21.00   14.1   14.3   14.1    79   10.5   4.8   NNE   1.21  12.9   NNE   14.1   13.9   13.9   12.2   854.3  0.00   0.0     0     0.00      0     0.0  0.00   0.0   0.045   0.000   17.6    63   10.5   17.2    0.03   351    1    100.0   15 
17/04/19  21.15   14.1   14.2   14.1    78   10.3   6.4   NNE   1.61  16.1   NNE   14.1   13.8   13.8   12.1   854.3  0.00   0.0     0     0.00      0     0.0  0.00   0.0   0.045   0.000   17.6    63   10.5   17.2    0.00   351    1    100.0   15 
17/04/19  21.30   14.1   14.1   14.0    79   10.5   6.4   NNE   1.61  14.5   NNE   14.1   13.9   13.9   12.2   854.3  0.00   0.0     0     0.00      0     0.0  0.00   0.0   0.044   0.000   17.6    63   10.4   17.2    0.00   350    1    100.0   15 
17/04/19  21.45   14.0   14.2   14.0    80   10.6   3.2   NNE   0.80  11.3   NNE   14.0   13.8   13.8   12.2   854.3  0.00   0.0     0     0.00      0     0.0  0.00   0.0   0.045   0.000   17.6    63   10.4   17.2    0.00   350    1    100.0   15 
17/04/19  22.00   13.9   14.0   13.9    80   10.5   1.6   NNE   0.40   9.7   NNE   13.9   13.7   13.7   12.0   854.3  0.00   0.0     0     0.00      0     0.0  0.00   0.0   0.046   0.000   17.6    63   10.4   17.2    0.03   351    1    100.0   15 
17/04/19  22.15   13.6   13.9   13.6    80   10.2   0.0   ---   0.00   0.0   ---   13.6   13.4   13.4   11.7   854.3  0.00   0.0     0     0.00      0     0.0  0.00   0.0   0.050   0.000   17.4    63   10.3   17.1    0.00   351    1    100.0   15 
17/04/19  22.30   13.1   13.6   13.1    76    8.9   0.0   ---   0.00   0.0   ---   13.1   12.8   12.8   11.1   854.3  0.00   0.0     0     0.00      0     0.0  0.00   0.0   0.055   0.000   17.4    63   10.3   17.1    0.00   350    1    100.0   15 
17/04/19  22.45   12.6   13.1   12.6    74    8.1   0.0   ---   0.00   0.0   ---   12.6   12.3   12.3   10.5   800.1  0.00   0.0     0     0.00      0     0.0  0.00   0.0   0.060   0.000   17.4    62   10.0   16.9    0.00   351    1    100.0   15 
17/04/19  23.00   12.5   12.9   12.5    74    8.0   0.0   NNE   0.00   3.2   NNE   12.5   12.2   12.2   10.4   745.8  0.00   0.0     0     0.00      0     0.0  0.00   0.0   0.061   0.000   17.4    62   10.0   16.9    0.03   349    1    100.0   15 
17/04/19  23.15   12.3   12.5   12.2    74    7.8   0.0   ---   0.00   0.0   ---   12.3   12.0   12.0   10.2   745.2  0.00   0.0     0     0.00      0     0.0  0.00   0.0   0.063   0.000   17.4    61    9.8   16.9    0.00   351    1    100.0   15 
17/04/19  23.30   12.3   12.4   12.2    73    7.6   0.0   NNE   0.00   1.6   NNE   12.3   11.9   11.9   10.1   745.2  0.00   0.0     0     0.00      0     0.0  0.00   0.0   0.063   0.000   17.3    61    9.7   16.7    0.00   351    1    100.0   15 
17/04/19  23.45   11.8   12.3   11.8    74    7.3   0.0   NNE   0.00   1.6   NNE   11.8   11.6   11.6    9.7   745.2  0.00   0.0     0     0.00      0     0.0  0.00   0.0   0.068   0.000   17.3    61    9.7   16.7    0.00   350    1    100.0   15 
18/04/19  00.00   12.0   12.1   11.8    74    7.5   0.0   NNE   0.00   3.2   NNE   12.0   11.7   11.7    9.9   745.2  0.00   0.0     0     0.00      0     0.0  0.00   0.0   0.066   0.000   17.2    61    9.6   16.7    0.03   350    1    100.0   15 
18/04/19   0.15   12.0   12.1   11.9    74    7.5   0.0   NNE   0.00   1.6   NNE   12.0   11.7   11.7    9.9   551.5  0.00   0.0     0     0.00      0     0.0  0.00   0.0   0.066   0.000   17.2    61    9.6   16.7    0.00   349    1    100.0   15 
18/04/19   0.30   11.6   12.0   11.6    75    7.3   0.0   NNE   0.00   1.6   NNE   11.6   11.3   11.3    9.4   551.5  0.00   0.0     0     0.00      0     0.0  0.00   0.0   0.071   0.000   17.2    60    9.4   16.6    0.00   349    1    100.0   15 
18/04/19   0.45   10.9   11.6   10.9    77    7.0   0.0   ---   0.00   0.0   ---   10.9   10.7   10.7    8.9   685.2  0.00   0.0     0     0.00      0     0.0  0.00   0.0   0.078   0.000   17.1    60    9.3   16.5    0.00   352    1    100.0   15 
18/04/19   1.00   10.4   10.9   10.4    79    7.0   0.0   ---   0.00   0.0   ---   10.4   10.4   10.4    8.6   685.2  0.00   0.0     0     0.00      0     0.0  0.00   0.0   0.082   0.000   17.1    60    9.3   16.5    0.03   351    1    100.0   15 
18/04/19   1.15   10.7   10.7   10.3    80    7.4   0.0   ---   0.00   0.0   ---   10.7   10.6   10.6    8.8   685.2  0.00   0.0     0     0.00      0     0.0  0.00   0.0   0.080   0.000   17.0    60    9.2   16.4    0.00   351    1    100.0   15 
18/04/19   1.30   10.3   10.7   10.3    81    7.2   0.0   NNE   0.00   1.6   NNE   10.3   10.3   10.3    8.5   685.2  0.00   0.0     0     0.00      0     0.0  0.00   0.0   0.083   0.000   17.0    60    9.2   16.4    0.00   350    1    100.0   15 
18/04/19   1.45   10.3   10.5   10.3    80    7.0   0.0   NNE   0.00   3.2   NNE   10.3   10.3   10.3    8.4   685.2  0.00   0.0     0     0.00      0     0.0  0.00   0.0   0.084   0.000   16.9    60    9.1   16.3    0.00   348    1    100.0   15 
18/04/19   2.00    9.6   10.3    9.6    81    6.5   0.0   NNE   0.00   3.2   NNE    9.6    9.6    9.6    7.7   685.2  0.00   0.0     0     0.00      0     0.0  0.00   0.0   0.091   0.000   16.9    60    9.1   16.3    0.00   352    1    100.0   15 
18/04/19   2.15    9.6    9.7    9.6    82    6.6   0.0   ---   0.00   0.0   ---    9.6    9.6    9.6    7.7   685.2  0.00   0.0     0     0.00      0     0.0  0.00   0.0   0.091   0.000   16.8    60    9.0   16.2    0.00   351    1    100.0   15 
18/04/19   2.30    9.0    9.6    8.9    83    6.3   0.0   NNE   0.00   1.6   NNE    9.0    9.0    9.0    7.1   685.2  0.00   0.0     0     0.00      0     0.0  0.00   0.0   0.097   0.000   16.8    59    8.8   16.2    0.00   350    1    100.0   15 
18/04/19   2.45    9.6    9.6    8.6    85    7.2   0.0   NNE   0.00   1.6   NNE    9.6    9.6    9.6    7.8   685.2  0.00   0.0     0     0.00      0     0.0  0.00   0.0   0.091   0.000   16.8    59    8.7   16.1    0.00   350    1    100.0   15 
18/04/19   3.00   12.8   12.8    9.6    83   10.0   1.6   NNE   0.40   6.4   NNE   12.8   12.7   12.7   10.9   685.2  0.00   0.0     0     0.00      0     0.0  0.00   0.0   0.058   0.000   16.8    60    9.0   16.1    0.00   352    1    100.0   15 
18/04/19   3.15   12.7   13.4   12.7    81    9.5   1.6   NNE   0.40   8.0   NNE   12.7   12.5   12.5   10.8   685.2  0.00   0.0     0     0.00      0     0.0  0.00   0.0   0.059   0.000   16.8    60    9.0   16.1    0.00   350    1    100.0   15 
18/04/19   3.30   12.7   12.7   12.2    83    9.9   1.6   NNE   0.40   6.4   NNE   12.7   12.6   12.6   10.9   685.2  0.00   0.0     0     0.00      0     0.0  0.00   0.0   0.058   0.000   16.8    61    9.2   16.2    0.00   351    1    100.0   15 
18/04/19   3.45   12.8   13.6   12.4    82    9.8   3.2   NNE   0.80   8.0   NNE   12.8   12.7   12.7   10.9   685.2  0.00   0.0     0     0.00      0     0.0  0.00   0.0   0.058   0.000   16.8    61    9.2   16.2    0.00   350    1    100.0   15 
18/04/19   4.00   12.4   13.4   12.4    84    9.8   4.8   NNE   1.21  14.5   NNE   12.4   12.4   12.4   10.7   685.2  0.00   0.0     0     0.00      0     0.0  0.00   0.0   0.061   0.000   16.7    61    9.1   16.1    0.03   352    1    100.0   15 
18/04/19   4.15   12.1   12.4   12.1    86    9.8   0.0   NNE   0.00   6.4   NNE   12.1   12.1   12.1   10.3   685.2  0.00   0.0     0     0.00      0     0.0  0.00   0.0   0.065   0.000   16.7    62    9.3   16.1    0.00   349    1    100.0   15 
18/04/19   4.30   12.2   12.2   12.1    88   10.3   4.8   NNE   1.21   8.0   NNE   12.2   12.2   12.2   10.5   685.2  0.00   0.0     0     0.00      0     0.0  0.00   0.0   0.064   0.000   16.7    63    9.6   16.2    0.00   351    1    100.0   15 
18/04/19   4.45   12.7   12.7   12.2    88   10.7   4.8   NNE   1.21   9.7   NNE   12.7   12.7   12.7   11.0   685.2  0.00   0.0     0     0.00      0     0.0  0.00   0.0   0.059   0.000   16.7    63    9.6   16.2    0.00   351    1    100.0   15 
18/04/19   5.00   12.7   12.7   12.6    89   10.9   1.6   NNE   0.40   9.7   NNE   12.7   12.7   12.7   11.1   685.2  0.00   0.0     0     0.00      0     0.0  0.00   0.0   0.059   0.000   16.7    64    9.8   16.2    0.00   350    1    100.0   15 
18/04/19   5.15   12.8   12.8   12.6    89   11.0   3.2   NNE   0.80   8.0   NNE   12.8   12.8   12.8   11.2   685.2  0.00   0.0     0     0.00      0     0.0  0.00   0.0   0.058   0.000   16.7    64    9.8   16.2    0.00   352    1    100.0   15 
18/04/19   5.30   11.9   12.8   11.9    89   10.1   1.6   NNE   0.40   6.4   NNE   11.9   11.9   11.9   10.2  1061.8  0.00   0.0     0     0.00      0     0.0  0.00   0.0   0.067   0.000   16.7    65   10.1   16.3    0.00   351    1    100.0   15 
18/04/19   5.45   10.8   11.8   10.8    89    9.0   0.0   ---   0.00   0.0   ---   10.8   10.9   10.9    9.2  1061.8  0.00   0.0     0     0.00      0     0.0  0.00   0.0   0.079   0.000   16.7    65   10.1   16.3    0.00   351    1    100.0   15 
18/04/19   6.00   10.6   10.9   10.6    89    8.9   0.0   ---   0.00   0.0   ---   10.6   10.7   10.7    8.9  1060.9  0.00   0.0     0     0.00      0     0.0  0.00   0.0   0.080   0.000   16.7    64    9.8   16.2    0.00   350    1    100.0   15 
18/04/19   6.15    9.9   10.7    9.8    89    8.2   0.0   ---   0.00   0.0   ---    9.9   10.1   10.1    8.3  1060.9  0.00   0.0     0     0.00      0     0.0  0.00   0.0   0.087   0.000   16.7    64    9.8   16.2    0.00   352    1    100.0   15 
18/04/19   6.30    9.7    9.9    9.6    89    8.0   0.0   ---   0.00   0.0   ---    9.7    9.9    9.9    8.1  1060.9  0.00   0.0     0     0.00      0     0.0  0.00   0.0   0.090   0.000   16.6    64    9.8   16.2    0.00   351    1    100.0   15 
18/04/19   6.45    9.8    9.8    9.4    89    8.1   0.0   ---   0.00   0.0   ---    9.8    9.9    9.9    8.2  1060.9  0.00   0.0     7     0.15     11     0.0  0.00   0.0   0.089   0.000   16.6    63    9.5   16.1    0.00   351    1    100.0   15 
18/04/19   7.00    9.6    9.8    9.5    89    7.8   0.0   ---   0.00   0.0   ---    9.6    9.7    9.7    8.2  1060.9  0.00   0.0    19     0.41     25     0.0  0.00   0.0   0.091   0.000   16.6    63    9.5   16.1    0.00   351    1    100.0   15 
18/04/19   7.15    9.5    9.6    9.4    89    7.8   0.0   ---   0.00   0.0   ---    9.5    9.7    9.7    8.2  1060.9  0.00   0.0    33     0.71     56     0.0  0.00   0.0   0.092   0.000   16.6    63    9.5   16.1    0.00   350    1    100.0   15 
18/04/19   7.30   10.0   10.0    9.5    89    8.3   0.0   NNE   0.00   1.6   NNE   10.0   10.2   10.2    9.3  1060.9  0.00   0.0    78     1.68     97     0.0  0.00   0.0   0.087   0.000   16.5    63    9.4   16.0    0.00   351    1    100.0   15 
18/04/19   7.45   10.5   10.5   10.0    89    8.8   0.0   ---   0.00   0.0   ---   10.5   10.6   10.6   10.2  1060.9  0.00   0.0   118     2.54    139     0.0  0.00   0.0   0.082   0.000   16.6    63    9.5   16.1    0.00   350    1    100.0   15 
18/04/19   8.00   11.1   11.1   10.5    89    9.4   0.0   ---   0.00   0.0   ---   11.1   11.2   11.2   11.4  1060.9  0.00   0.0   165     3.55    190     0.0  0.00   0.0   0.075   0.000   16.6    63    9.5   16.1    0.05   351    1    100.0   15 
18/04/19   8.15   12.6   12.6   11.1    86   10.3   0.0   NNE   0.00   1.6   NNE   12.6   12.6   12.6   16.4  1060.9  0.00   0.0   226     4.86    253     0.0  0.00   0.0   0.060   0.000   16.6    63    9.5   16.1    0.00   350    1    100.0   15 
18/04/19   8.30   13.5   13.5   12.6    85   11.0   0.0   ---   0.00   0.0   ---   13.5   13.4   13.4   18.1  1060.9  0.00   0.0   277     5.96    299     0.0  0.00   0.0   0.050   0.000   16.7    64    9.8   16.2    0.00   350    1    100.0   15 
18/04/19   8.45   15.6   15.6   13.5    73   10.7   0.0   ---   0.00   0.0   ---   15.6   15.3   15.3   20.6  1060.9  0.00   0.0   324     6.97    348     0.0  0.00   0.0   0.029   0.000   16.8    64    9.9   16.3    0.00   350    1    100.0   15 
18/04/19   9.00   17.2   17.2   15.6    62    9.8   0.0   ---   0.00   0.0   ---   17.2   16.7   16.7   22.3  1060.9  0.00   0.0   370     7.96    392     0.0  0.00   0.0   0.012   0.000   16.8    62    9.5   16.3    0.15   350    1    100.0   15 
18/04/19   9.15   18.0   18.0   17.2    52    8.0   0.0    NE   0.00   1.6   NNE   18.0   17.1   17.1   23.0  1060.9  0.00   0.0   417     8.97    439     0.0  0.00   0.0   0.003   0.000   16.9    61    9.4   16.4    0.00   351    1    100.0   15 
18/04/19   9.30   18.0   18.3   18.0    49    7.1   0.0   ESE   0.00   4.8   ESE   18.0   17.0   17.0   23.1   681.8  0.00   0.0   463     9.96    485     0.0  0.00   0.0   0.003   0.000   17.1    59    9.0   16.4    0.00   352    1    100.0   15 
18/04/19   9.45   18.1   18.4   18.0    54    8.6   3.2    SE   0.80   9.7    SE   18.1   17.3   17.3   23.6   681.8  0.00   0.0   508    10.92    529     0.0  0.00   0.0   0.003   0.000   17.2    56    8.4   16.5    0.00   350    1    100.0   15 
18/04/19  10.00   17.1   18.1   17.1    69   11.3   3.2    SE   0.80  14.5    SE   17.1   16.8   16.8   23.3   745.8  0.00   0.0   550    11.83    573     0.0  0.00   0.0   0.013   0.000   17.4    59    9.3   16.8    0.30   319    1     93.3   15 
18/04/19  10.15   17.4   17.8   16.9    74   12.7   1.6    SE   0.40   9.7    SE   17.4   17.3   17.3   24.0   854.3  0.00   0.0   591    12.71    608     0.0  0.00   0.0   0.010   0.000   17.4    63   10.3   17.1    0.00   346    1    100.0   15 
18/04/19  10.30   16.8   17.4   16.8    77   12.8   3.2   SSE   0.80   9.7    SE   16.8   16.8   16.8   23.5   854.3  0.00   0.0   628    13.50    647     0.0  0.00   0.0   0.016   0.000   17.6    67   11.4   17.3    0.00   352    1    100.0   15 
18/04/19  10.45   16.3   16.8   16.3    79   12.6   6.4   SSE   1.61  14.5   SSE   16.3   16.3   16.3   22.9   854.3  0.00   0.0   665    14.30    682     0.0  0.00   0.0   0.021   0.000   17.6    68   11.6   17.4    0.00   349    1    100.0   15 
18/04/19  11.00   16.2   16.4   16.1    78   12.4   4.8     S   1.21  11.3     S   16.2   16.2   16.2   22.8   854.3  0.00   0.0   694    14.92    708     0.0  0.00   0.0   0.022   0.000   17.6    67   11.4   17.4    0.38   351    1    100.0   15 
18/04/19  11.15   16.6   16.9   16.2    73   11.7   4.8     S   1.21   9.7     S   16.6   16.4   16.4   23.1   854.3  0.00   0.0   725    15.59    742     0.0  0.00   0.0   0.018   0.000   17.7    66   11.3   17.5    0.00   349    1    100.0   15 
18/04/19  11.30   16.9   16.9   16.3    64   10.0   6.4    SW   1.61  11.3    SW   16.9   16.4   16.4   23.0   854.3  0.00   0.0   756    16.26    770     0.1  0.01   0.5   0.015   0.000   17.8    63   10.7   17.5    0.00   351    1    100.0   15 
© www.elbaexplorer.com